Wetterdaten: Sonntag, 13.11.2022
Datum Zeit Temp. Aussen Temp. o. S. Temp +5cm Feuchte Auss Luftdruck Regen Sonnenschein Regendauer Solar Windben Empfang
13.11.2022 00:00 9,4 C 8,3 C 5,0 C 83 % 1027,8 hPa 0,0 l/m 0 min 0 min 0 W/m 12,9 km/h (3 Bft) 100,00 %
13.11.2022 00:02 9,4 C 8,3 C 5,0 C 83 % 1027,8 hPa 0,0 l/m 0 min 0 min 0 W/m 6,4 km/h (2 Bft) 100,00 %
13.11.2022 00:04 9,4 C 8,3 C 5,0 C 84 % 1027,8 hPa 0,0 l/m 0 min 0 min 0 W/m 3,2 km/h (1 Bft) 97,87 %
13.11.2022 00:07 9,3 C 8,3 C 5,0 C 84 % 1027,8 hPa 0,0 l/m 0 min 0 min 0 W/m 6,4 km/h (2 Bft) 100,00 %
13.11.2022 00:08 9,3 C 8,3 C 5,0 C 84 % 1027,8 hPa 0,0 l/m 0 min 0 min 0 W/m 3,2 km/h (1 Bft) 100,00 %
13.11.2022 00:12 9,3 C 8,3 C 5,0 C 84 % 1027,9 hPa 0,0 l/m 0 min 0 min 0 W/m 6,4 km/h (2 Bft) 98,11 %
13.11.2022 00:14 9,2 C 8,3 C 5,0 C 84 % 1027,8 hPa 0,0 l/m 0 min 0 min 0 W/m 3,2 km/h (1 Bft) 100,00 %
13.11.2022 00:16 9,2 C 7,8 C 5,0 C 84 % 1027,8 hPa 0,0 l/m 0 min 0 min 0 W/m 3,2 km/h (1 Bft) 100,00 %
13.11.2022 00:18 9,2 C 7,8 C 5,0 C 84 % 1027,8 hPa 0,0 l/m 0 min 0 min 0 W/m 3,2 km/h (1 Bft) 100,00 %
13.11.2022 00:20 9,1 C 8,3 C 5,0 C 84 % 1027,8 hPa 0,0 l/m 0 min 0 min 0 W/m 6,4 km/h (2 Bft) 97,87 %
13.11.2022 00:22 9,1 C 8,3 C 5,0 C 85 % 1027,9 hPa 0,0 l/m 0 min 0 min 0 W/m 12,9 km/h (3 Bft) 100,00 %
13.11.2022 00:24 9,1 C 8,3 C 5,0 C 85 % 1027,9 hPa 0,0 l/m 0 min 0 min 0 W/m 6,4 km/h (2 Bft) 100,00 %
13.11.2022 00:26 9,1 C 8,3 C 5,0 C 85 % 1027,9 hPa 0,0 l/m 0 min 0 min 0 W/m 3,2 km/h (1 Bft) 100,00 %
13.11.2022 00:28 9,1 C 8,3 C 5,0 C 85 % 1027,9 hPa 0,0 l/m 0 min 0 min 0 W/m 6,4 km/h (2 Bft) 97,87 %
13.11.2022 00:30 9,1 C 8,3 C 5,0 C 85 % 1027,9 hPa 0,0 l/m 0 min 0 min 0 W/m 3,2 km/h (1 Bft) 100,00 %
13.11.2022 00:32 9,1 C 8,3 C 5,0 C 85 % 1028,0 hPa 0,0 l/m 0 min 0 min 0 W/m 3,2 km/h (1 Bft) 100,00 %
13.11.2022 00:34 9,1 C 8,3 C 5,0 C 85 % 1027,9 hPa 0,0 l/m 0 min 0 min 0 W/m 3,2 km/h (1 Bft) 97,87 %
13.11.2022 00:36 9,1 C 8,3 C 5,0 C 85 % 1027,9 hPa 0,0 l/m 0 min 0 min 0 W/m 3,2 km/h (1 Bft) 97,87 %
13.11.2022 00:38 9,0 C 7,8 C 5,0 C 85 % 1027,9 hPa 0,0 l/m 0 min 0 min 0 W/m 3,2 km/h (1 Bft) 97,87 %
13.11.2022 00:40 9,0 C 7,8 C 5,0 C 85 % 1027,9 hPa 0,0 l/m 0 min 0 min 0 W/m 3,2 km/h (1 Bft) 97,87 %
13.11.2022 00:42 9,0 C 7,8 C 4,4 C 85 % 1027,9 hPa 0,0 l/m 0 min 0 min 0 W/m 3,2 km/h (1 Bft) 97,87 %
13.11.2022 00:44 8,9 C 7,8 C 4,4 C 85 % 1027,9 hPa 0,0 l/m 0 min 0 min 0 W/m 3,2 km/h (1 Bft) 97,83 %
13.11.2022 00:46 8,9 C 7,8 C 4,4 C 85 % 1027,9 hPa 0,0 l/m 0 min 0 min 0 W/m 3,2 km/h (1 Bft) 97,87 %
13.11.2022 00:48 8,9 C 7,8 C 4,4 C 85 % 1027,8 hPa 0,0 l/m 0 min 0 min 0 W/m 3,2 km/h (1 Bft) 95,74 %
13.11.2022 00:50 8,9 C 7,8 C 4,4 C 85 % 1027,8 hPa 0,0 l/m 0 min 0 min 0 W/m 3,2 km/h (1 Bft) 93,62 %
13.11.2022 00:52 8,9 C 7,8 C 4,4 C 85 % 1027,8 hPa 0,0 l/m 0 min 0 min 0 W/m 3,2 km/h (1 Bft) 95,74 %
13.11.2022 00:54 8,8 C 7,8 C 4,4 C 85 % 1027,8 hPa 0,0 l/m 0 min 0 min 0 W/m 0,0 km/h (0 Bft) 95,74 %
13.11.2022 00:56 8,8 C 7,8 C 4,4 C 85 % 1027,8 hPa 0,0 l/m 0 min 0 min 0 W/m 0,0 km/h (0 Bft) 97,83 %
13.11.2022 00:58 8,8 C 7,8 C 4,4 C 85 % 1027,8 hPa 0,0 l/m 0 min 0 min 0 W/m 0,0 km/h (0 Bft) 97,87 %
13.11.2022 01:00 8,8 C 7,8 C 4,4 C 85 % 1027,7 hPa 0,0 l/m 0 min 0 min 0 W/m 3,2 km/h (1 Bft) 95,74 %
13.11.2022 01:02 8,8 C 7,8 C 4,4 C 85 % 1027,8 hPa 0,0 l/m 0 min 0 min 0 W/m 3,2 km/h (1 Bft) 97,87 %
13.11.2022 01:04 8,8 C 7,8 C 4,4 C 85 % 1027,7 hPa 0,0 l/m 0 min 0 min 0 W/m 0,0 km/h (0 Bft) 97,62 %
13.11.2022 01:06 8,7 C 7,8 C 4,4 C 85 % 1027,7 hPa 0,0 l/m 0 min 0 min 0 W/m 0,0 km/h (0 Bft) 93,10 %
13.11.2022 01:08 8,7 C 7,8 C 4,4 C 85 % 1027,7 hPa 0,0 l/m 0 min 0 min 0 W/m 0,0 km/h (0 Bft) 100,00 %
13.11.2022 01:10 8,7 C 7,8 C 4,4 C 85 % 1027,7 hPa 0,0 l/m 0 min 0 min 0 W/m 0,0 km/h (0 Bft) 97,87 %
13.11.2022 01:12 8,7 C 7,8 C 4,4 C 86 % 1027,7 hPa 0,0 l/m 0 min 0 min 0 W/m 0,0 km/h (0 Bft) 93,62 %
13.11.2022 01:14 8,6 C 7,8 C 4,4 C 86 % 1027,7 hPa 0,0 l/m 0 min 0 min 0 W/m 0,0 km/h (0 Bft) 97,87 %
13.11.2022 01:16 8,6 C 7,8 C 4,4 C 85 % 1027,8 hPa 0,0 l/m 0 min 0 min 0 W/m 0,0 km/h (0 Bft) 97,87 %
13.11.2022 01:18 8,6 C 7,2 C 4,4 C 85 % 1027,7 hPa 0,0 l/m 0 min 0 min 0 W/m 0,0 km/h (0 Bft) 97,87 %
13.11.2022 01:20 8,6 C 7,2 C 4,4 C 86 % 1027,7 hPa 0,0 l/m 0 min 0 min 0 W/m 0,0 km/h (0 Bft) 93,48 %
13.11.2022 01:22 8,6 C 7,2 C 4,4 C 86 % 1027,6 hPa 0,0 l/m 0 min 0 min 0 W/m 0,0 km/h (0 Bft) 95,74 %
13.11.2022 01:24 8,6 C 7,2 C 4,4 C 86 % 1027,6 hPa 0,0 l/m 0 min 0 min 0 W/m 0,0 km/h (0 Bft) 97,87 %
13.11.2022 01:26 8,5 C 7,2 C 4,4 C 86 % 1027,6 hPa 0,0 l/m 0 min 0 min 0 W/m 0,0 km/h (0 Bft) 95,74 %
13.11.2022 01:28 8,5 C 7,2 C 4,4 C 86 % 1027,6 hPa 0,0 l/m 0 min 0 min 0 W/m 0,0 km/h (0 Bft) 95,74 %
13.11.2022 01:30 8,4 C 7,2 C 4,4 C 86 % 1027,6 hPa 0,0 l/m 0 min 0 min 0 W/m 0,0 km/h (0 Bft) 95,74 %
13.11.2022 01:32 8,4 C 7,2 C 4,4 C 86 % 1027,5 hPa 0,0 l/m 0 min 0 min 0 W/m 0,0 km/h (0 Bft) 93,48 %
13.11.2022 01:34 8,4 C 7,2 C 4,4 C 86 % 1027,5 hPa 0,0 l/m 0 min 0 min 0 W/m 0,0 km/h (0 Bft) 96,36 %
13.11.2022 01:36 8,4 C 7,2 C 4,4 C 86 % 1027,5 hPa 0,0 l/m 0 min 0 min 0 W/m 0,0 km/h (0 Bft) 94,00 %
13.11.2022 01:38 8,3 C 7,2 C 3,9 C 86 % 1027,5 hPa 0,0 l/m 0 min 0 min 0 W/m 0,0 km/h (0 Bft) 95,74 %
13.11.2022 01:40 8,3 C 7,2 C 3,9 C 86 % 1027,5 hPa 0,0 l/m 0 min 0 min 0 W/m 0,0 km/h (0 Bft) 95,74 %
13.11.2022 01:42 8,3 C 7,2 C 3,9 C 86 % 1027,5 hPa 0,0 l/m 0 min 0 min 0 W/m 0,0 km/h (0 Bft) 93,48 %
13.11.2022 01:44 8,3 C 7,2 C 3,9 C 86 % 1027,4 hPa 0,0 l/m 0 min 0 min 0 W/m 0,0 km/h (0 Bft) 95,74 %
13.11.2022 01:46 8,3 C 7,2 C 4,4 C 86 % 1027,4 hPa 0,0 l/m 0 min 0 min 0 W/m 6,4 km/h (2 Bft) 95,74 %
13.11.2022 01:48 8,3 C 7,2 C 4,4 C 86 % 1027,3 hPa 0,0 l/m 0 min 0 min 0 W/m 6,4 km/h (2 Bft) 97,87 %
13.11.2022 01:50 8,3 C 7,2 C 4,4 C 87 % 1027,3 hPa 0,0 l/m 0 min 0 min 0 W/m 6,4 km/h (2 Bft) 95,74 %
13.11.2022 01:52 8,2 C 7,2 C 4,4 C 87 % 1027,3 hPa 0,0 l/m 0 min 0 min 0 W/m 6,4 km/h (2 Bft) 95,74 %
13.11.2022 01:54 8,2 C 7,2 C 4,4 C 87 % 1027,4 hPa 0,0 l/m 0 min 0 min 0 W/m 6,4 km/h (2 Bft) 95,65 %
13.11.2022 01:56 8,2 C 7,2 C 4,4 C 87 % 1027,4 hPa 0,0 l/m 0 min 0 min 0 W/m 3,2 km/h (1 Bft) 95,74 %
13.11.2022 01:58 8,2 C 7,2 C 4,4 C 87 % 1027,4 hPa 0,0 l/m 0 min 0 min 0 W/m 6,4 km/h (2 Bft) 97,87 %
13.11.2022 02:00 8,2 C 7,2 C 4,4 C 87 % 1027,3 hPa 0,0 l/m 0 min 0 min 0 W/m 3,2 km/h (1 Bft) 93,62 %
13.11.2022 02:02 8,2 C 7,2 C 4,4 C 87 % 1027,3 hPa 0,0 l/m 0 min 0 min 0 W/m 6,4 km/h (2 Bft) 97,87 %
13.11.2022 02:04 8,2 C 7,2 C 4,4 C 87 % 1027,3 hPa 0,0 l/m 0 min 0 min 0 W/m 3,2 km/h (1 Bft) 95,74 %
13.11.2022 02:06 8,2 C 7,2 C 4,4 C 87 % 1027,3 hPa 0,0 l/m 0 min 0 min 0 W/m 3,2 km/h (1 Bft) 97,83 %
13.11.2022 02:08 8,2 C 7,2 C 4,4 C 87 % 1027,3 hPa 0,0 l/m 0 min 0 min 0 W/m 6,4 km/h (2 Bft) 100,00 %
13.11.2022 02:10 8,1 C 7,2 C 4,4 C 87 % 1027,3 hPa 0,0 l/m 0 min 0 min 0 W/m 6,4 km/h (2 Bft) 97,87 %
13.11.2022 02:12 8,1 C 7,2 C 4,4 C 87 % 1027,2 hPa 0,0 l/m 0 min 0 min 0 W/m 6,4 km/h (2 Bft) 95,74 %
13.11.2022 02:14 8,1 C 7,2 C 4,4 C 87 % 1027,2 hPa 0,0 l/m 0 min 0 min 0 W/m 6,4 km/h (2 Bft) 100,00 %
13.11.2022 02:16 8,1 C 7,2 C 4,4 C 87 % 1027,1 hPa 0,0 l/m 0 min 0 min 0 W/m 12,9 km/h (3 Bft) 97,87 %
13.11.2022 02:18 8,1 C 7,2 C 4,4 C 87 % 1027,1 hPa 0,0 l/m 0 min 0 min 0 W/m 3,2 km/h (1 Bft) 95,65 %
13.11.2022 02:20 8,1 C 7,2 C 4,4 C 87 % 1027,1 hPa 0,0 l/m 0 min 0 min 0 W/m 6,4 km/h (2 Bft) 95,74 %
13.11.2022 02:22 8,1 C 7,2 C 4,4 C 87 % 1027,1 hPa 0,0 l/m 0 min 0 min 0 W/m 9,7 km/h (2 Bft) 97,87 %
13.11.2022 02:24 8,1 C 7,2 C 4,4 C 87 % 1027,1 hPa 0,0 l/m 0 min 0 min 0 W/m 3,2 km/h (1 Bft) 97,87 %
13.11.2022 02:26 8,1 C 7,2 C 4,4 C 87 % 1027,1 hPa 0,0 l/m 0 min 0 min 0 W/m 3,2 km/h (1 Bft) 93,62 %
13.11.2022 02:28 8,1 C 7,2 C 4,4 C 88 % 1027,1 hPa 0,0 l/m 0 min 0 min 0 W/m 6,4 km/h (2 Bft) 97,87 %
13.11.2022 02:30 8,1 C 7,2 C 3,9 C 87 % 1027,0 hPa 0,0 l/m 0 min 0 min 0 W/m 6,4 km/h (2 Bft) 97,83 %
13.11.2022 02:32 8,1 C 7,2 C 3,9 C 88 % 1027,0 hPa 0,0 l/m 0 min 0 min 0 W/m 6,4 km/h (2 Bft) 97,87 %
13.11.2022 02:34 8,1 C 7,2 C 3,9 C 88 % 1027,0 hPa 0,0 l/m 0 min 0 min 0 W/m 3,2 km/h (1 Bft) 97,87 %
13.11.2022 02:36 8,1 C 7,2 C 3,9 C 88 % 1027,0 hPa 0,0 l/m 0 min 0 min 0 W/m 3,2 km/h (1 Bft) 97,87 %
13.11.2022 02:38 8,0 C 7,2 C 3,9 C 88 % 1027,0 hPa 0,0 l/m 0 min 0 min 0 W/m 3,2 km/h (1 Bft) 95,74 %
13.11.2022 02:40 8,0 C 7,2 C 3,9 C 88 % 1026,9 hPa 0,0 l/m 0 min 0 min 0 W/m 6,4 km/h (2 Bft) 97,87 %
13.11.2022 02:42 8,0 C 7,2 C 3,9 C 88 % 1027,0 hPa 0,0 l/m 0 min 0 min 0 W/m 3,2 km/h (1 Bft) 97,83 %
13.11.2022 02:44 8,0 C 7,2 C 3,9 C 88 % 1027,0 hPa 0,0 l/m 0 min 0 min 0 W/m 6,4 km/h (2 Bft) 95,74 %
13.11.2022 02:46 8,0 C 7,2 C 4,4 C 88 % 1027,0 hPa 0,0 l/m 0 min 0 min 0 W/m 6,4 km/h (2 Bft) 95,74 %
13.11.2022 02:48 8,0 C 7,2 C 4,4 C 88 % 1027,0 hPa 0,0 l/m 0 min 0 min 0 W/m 12,9 km/h (3 Bft) 100,00 %
13.11.2022 02:50 8,1 C 7,8 C 4,4 C 88 % 1026,9 hPa 0,0 l/m 0 min 0 min 0 W/m 12,9 km/h (3 Bft) 97,87 %
13.11.2022 02:52 8,1 C 7,8 C 4,4 C 88 % 1026,9 hPa 0,0 l/m 0 min 0 min 0 W/m 6,4 km/h (2 Bft) 100,00 %
13.11.2022 02:54 8,1 C 7,8 C 4,4 C 88 % 1026,9 hPa 0,0 l/m 0 min 0 min 0 W/m 6,4 km/h (2 Bft) 100,00 %
13.11.2022 02:56 8,1 C 7,8 C 4,4 C 88 % 1026,9 hPa 0,0 l/m 0 min 0 min 0 W/m 6,4 km/h (2 Bft) 100,00 %
13.11.2022 02:58 8,1 C 7,2 C 4,4 C 88 % 1026,8 hPa 0,0 l/m 0 min 0 min 0 W/m 3,2 km/h (1 Bft) 100,00 %
13.11.2022 03:00 8,1 C 7,2 C 4,4 C 88 % 1026,8 hPa 0,0 l/m 0 min 0 min 0 W/m 6,4 km/h (2 Bft) 100,00 %
13.11.2022 03:02 8,1 C 7,2 C 4,4 C 88 % 1026,7 hPa 0,0 l/m 0 min 0 min 0 W/m 12,9 km/h (3 Bft) 95,74 %
13.11.2022 03:04 8,1 C 7,8 C 4,4 C 88 % 1026,7 hPa 0,0 l/m 0 min 0 min 0 W/m 6,4 km/h (2 Bft) 95,74 %
13.11.2022 03:06 8,1 C 7,8 C 4,4 C 88 % 1026,7 hPa 0,0 l/m 0 min 0 min 0 W/m 3,2 km/h (1 Bft) 100,00 %
13.11.2022 03:08 8,1 C 7,2 C 4,4 C 88 % 1026,7 hPa 0,0 l/m 0 min 0 min 0 W/m 6,4 km/h (2 Bft) 100,00 %
13.11.2022 03:10 8,1 C 7,2 C 4,4 C 87 % 1026,6 hPa 0,0 l/m 0 min 0 min 0 W/m 6,4 km/h (2 Bft) 100,00 %
13.11.2022 03:12 8,1 C 7,2 C 4,4 C 87 % 1026,5 hPa 0,0 l/m 0 min 0 min 0 W/m 3,2 km/h (1 Bft) 100,00 %
13.11.2022 03:14 8,1 C 7,2 C 4,4 C 87 % 1026,6 hPa 0,0 l/m 0 min 0 min 0 W/m 9,7 km/h (2 Bft) 100,00 %
13.11.2022 03:16 8,1 C 7,2 C 4,4 C 87 % 1026,6 hPa 0,0 l/m 0 min 0 min 0 W/m 6,4 km/h (2 Bft) 100,00 %
13.11.2022 03:18 8,1 C 7,2 C 4,4 C 87 % 1026,6 hPa 0,0 l/m 0 min 0 min 0 W/m 3,2 km/h (1 Bft) 100,00 %
13.11.2022 03:20 8,1 C 7,2 C 4,4 C 87 % 1026,5 hPa 0,0 l/m 0 min 0 min 0 W/m 6,4 km/h (2 Bft) 97,87 %
13.11.2022 03:22 8,1 C 7,2 C 4,4 C 87 % 1026,6 hPa 0,0 l/m 0 min 0 min 0 W/m 3,2 km/h (1 Bft) 100,00 %
13.11.2022 03:24 8,1 C 7,2 C 3,9 C 87 % 1026,5 hPa 0,0 l/m 0 min 0 min 0 W/m 6,4 km/h (2 Bft) 100,00 %
13.11.2022 03:26 8,1 C 7,2 C 3,9 C 87 % 1026,5 hPa 0,0 l/m 0 min 0 min 0 W/m 3,2 km/h (1 Bft) 100,00 %
13.11.2022 03:28 8,1 C 7,2 C 3,9 C 87 % 1026,5 hPa 0,0 l/m 0 min 0 min 0 W/m 0,0 km/h (0 Bft) 100,00 %
13.11.2022 03:30 8,1 C 7,2 C 3,9 C 87 % 1026,5 hPa 0,0 l/m 0 min 0 min 0 W/m 0,0 km/h (0 Bft) 100,00 %
13.11.2022 03:32 8,1 C 6,7 C 3,9 C 87 % 1026,5 hPa 0,0 l/m 0 min 0 min 0 W/m 3,2 km/h (1 Bft) 100,00 %
13.11.2022 03:34 8,1 C 6,7 C 3,9 C 87 % 1026,5 hPa 0,0 l/m 0 min 0 min 0 W/m 3,2 km/h (1 Bft) 100,00 %
13.11.2022 03:36 8,0 C 6,7 C 3,9 C 87 % 1026,5 hPa 0,0 l/m 0 min 0 min 0 W/m 3,2 km/h (1 Bft) 100,00 %
13.11.2022 03:38 7,9 C 6,7 C 3,3 C 88 % 1026,4 hPa 0,0 l/m 0 min 0 min 0 W/m 3,2 km/h (1 Bft) 100,00 %
13.11.2022 03:40 7,9 C 6,7 C 3,3 C 88 % 1026,4 hPa 0,0 l/m 0 min 0 min 0 W/m 3,2 km/h (1 Bft) 95,74 %
13.11.2022 03:42 7,9 C 6,7 C 3,3 C 88 % 1026,5 hPa 0,0 l/m 0 min 0 min 0 W/m 3,2 km/h (1 Bft) 97,83 %
13.11.2022 03:44 7,9 C 6,7 C 3,3 C 88 % 1026,4 hPa 0,0 l/m 0 min 0 min 0 W/m 3,2 km/h (1 Bft) 100,00 %
13.11.2022 03:46 7,8 C 6,7 C 3,3 C 88 % 1026,5 hPa 0,0 l/m 0 min 0 min 0 W/m 6,4 km/h (2 Bft) 100,00 %
13.11.2022 03:48 7,8 C 6,7 C 3,3 C 88 % 1026,4 hPa 0,0 l/m 0 min 0 min 0 W/m 3,2 km/h (1 Bft) 100,00 %
13.11.2022 03:50 7,8 C 6,1 C 3,3 C 88 % 1026,5 hPa 0,0 l/m 0 min 0 min 0 W/m 6,4 km/h (2 Bft) 95,74 %
13.11.2022 03:52 7,7 C 6,7 C 3,3 C 88 % 1026,5 hPa 0,0 l/m 0 min 0 min 0 W/m 6,4 km/h (2 Bft) 97,87 %
13.11.2022 03:54 7,7 C 6,7 C 3,3 C 88 % 1026,5 hPa 0,0 l/m 0 min 0 min 0 W/m 3,2 km/h (1 Bft) 93,48 %
13.11.2022 03:56 7,7 C 6,7 C 3,3 C 88 % 1026,5 hPa 0,0 l/m 0 min 0 min 0 W/m 6,4 km/h (2 Bft) 97,87 %
13.11.2022 03:58 7,6 C 6,7 C 3,3 C 88 % 1026,5 hPa 0,0 l/m 0 min 0 min 0 W/m 6,4 km/h (2 Bft) 97,87 %
13.11.2022 04:00 7,6 C 6,7 C 3,3 C 88 % 1026,4 hPa 0,0 l/m 0 min 0 min 0 W/m 3,2 km/h (1 Bft) 97,87 %
13.11.2022 04:02 7,6 C 6,7 C 3,3 C 88 % 1026,4 hPa 0,0 l/m 0 min 0 min 0 W/m 3,2 km/h (1 Bft) 93,10 %
13.11.2022 04:04 7,6 C 6,7 C 3,3 C 88 % 1026,4 hPa 0,0 l/m 0 min 0 min 0 W/m 3,2 km/h (1 Bft) 95,74 %
13.11.2022 04:06 7,6 C 6,7 C 3,3 C 88 % 1026,4 hPa 0,0 l/m 0 min 0 min 0 W/m 3,2 km/h (1 Bft) 95,65 %
13.11.2022 04:08 7,6 C 6,7 C 3,3 C 88 % 1026,4 hPa 0,0 l/m 0 min 0 min 0 W/m 0,0 km/h (0 Bft) 97,87 %
13.11.2022 04:10 7,5 C 6,7 C 3,3 C 88 % 1026,3 hPa 0,0 l/m 0 min 0 min 0 W/m 3,2 km/h (1 Bft) 100,00 %
13.11.2022 04:12 7,5 C 6,7 C 3,3 C 88 % 1026,4 hPa 0,0 l/m 0 min 0 min 0 W/m 3,2 km/h (1 Bft) 100,00 %
13.11.2022 04:14 7,5 C 6,7 C 3,3 C 88 % 1026,4 hPa 0,0 l/m 0 min 0 min 0 W/m 3,2 km/h (1 Bft) 93,62 %
13.11.2022 04:16 7,5 C 6,7 C 3,3 C 89 % 1026,4 hPa 0,0 l/m 0 min 0 min 0 W/m 6,4 km/h (2 Bft) 91,49 %
13.11.2022 04:18 7,5 C 6,7 C 3,3 C 89 % 1026,4 hPa 0,0 l/m 0 min 0 min 0 W/m 6,4 km/h (2 Bft) 91,30 %
13.11.2022 04:20 7,5 C 6,7 C 3,3 C 89 % 1026,3 hPa 0,0 l/m 0 min 0 min 0 W/m 6,4 km/h (2 Bft) 93,62 %
13.11.2022 04:22 7,5 C 6,7 C 3,3 C 89 % 1026,3 hPa 0,0 l/m 0 min 0 min 0 W/m 3,2 km/h (1 Bft) 91,49 %
13.11.2022 04:24 7,5 C 6,7 C 3,3 C 89 % 1026,3 hPa 0,0 l/m 0 min 0 min 0 W/m 3,2 km/h (1 Bft) 93,62 %
13.11.2022 04:26 7,5 C 6,7 C 3,3 C 89 % 1026,3 hPa 0,0 l/m 0 min 0 min 0 W/m 3,2 km/h (1 Bft) 95,74 %
13.11.2022 04:28 7,5 C 6,7 C 3,3 C 89 % 1026,3 hPa 0,0 l/m 0 min 0 min 0 W/m 3,2 km/h (1 Bft) 95,65 %
13.11.2022 04:30 7,5 C 6,7 C 3,3 C 89 % 1026,2 hPa 0,0 l/m 0 min 0 min 0 W/m 3,2 km/h (1 Bft) 93,62 %
13.11.2022 04:32 7,5 C 6,7 C 3,3 C 89 % 1026,2 hPa 0,0 l/m 0 min 0 min 0 W/m 3,2 km/h (1 Bft) 95,74 %
13.11.2022 04:34 7,5 C 6,7 C 3,3 C 89 % 1026,2 hPa 0,0 l/m 0 min 0 min 0 W/m 3,2 km/h (1 Bft) 93,62 %
13.11.2022 04:36 7,4 C 6,7 C 3,3 C 89 % 1026,2 hPa 0,0 l/m 0 min 0 min 0 W/m 3,2 km/h (1 Bft) 93,62 %
13.11.2022 04:38 7,4 C 6,7 C 3,3 C 89 % 1026,2 hPa 0,0 l/m 0 min 0 min 0 W/m 3,2 km/h (1 Bft) 97,87 %
13.11.2022 04:40 7,4 C 6,7 C 3,3 C 89 % 1026,3 hPa 0,0 l/m 0 min 0 min 0 W/m 3,2 km/h (1 Bft) 95,65 %
13.11.2022 04:42 7,4 C 6,7 C 3,3 C 89 % 1026,3 hPa 0,0 l/m 0 min 0 min 0 W/m 3,2 km/h (1 Bft) 93,62 %
13.11.2022 04:44 7,4 C 6,7 C 3,3 C 89 % 1026,1 hPa 0,0 l/m 0 min 0 min 0 W/m 3,2 km/h (1 Bft) 97,87 %
13.11.2022 04:46 7,4 C 6,1 C 3,3 C 89 % 1026,1 hPa 0,0 l/m 0 min 0 min 0 W/m 3,2 km/h (1 Bft) 97,87 %
13.11.2022 04:48 7,4 C 6,7 C 3,3 C 89 % 1026,0 hPa 0,0 l/m 0 min 0 min 0 W/m 3,2 km/h (1 Bft) 95,74 %
13.11.2022 04:50 7,4 C 6,7 C 3,3 C 89 % 1026,0 hPa 0,0 l/m 0 min 0 min 0 W/m 3,2 km/h (1 Bft) 97,87 %
13.11.2022 04:52 7,4 C 6,7 C 3,3 C 89 % 1026,1 hPa 0,0 l/m 0 min 0 min 0 W/m 3,2 km/h (1 Bft) 95,65 %
13.11.2022 04:54 7,4 C 6,7 C 3,3 C 89 % 1026,1 hPa 0,0 l/m 0 min 0 min 0 W/m 3,2 km/h (1 Bft) 95,74 %
13.11.2022 04:56 7,3 C 6,7 C 3,3 C 89 % 1026,0 hPa 0,0 l/m 0 min 0 min 0 W/m 6,4 km/h (2 Bft) 97,87 %
13.11.2022 04:58 7,3 C 6,7 C 3,3 C 89 % 1026,0 hPa 0,0 l/m 0 min 0 min 0 W/m 6,4 km/h (2 Bft) 97,62 %
13.11.2022 05:00 7,3 C 6,7 C 3,3 C 89 % 1026,0 hPa 0,0 l/m 0 min 0 min 0 W/m 3,2 km/h (1 Bft) 95,74 %
13.11.2022 05:02 7,3 C 6,7 C 3,3 C 89 % 1026,0 hPa 0,0 l/m 0 min 0 min 0 W/m 3,2 km/h (1 Bft) 97,87 %
13.11.2022 05:04 7,3 C 6,7 C 3,3 C 89 % 1026,0 hPa 0,0 l/m 0 min 0 min 0 W/m 3,2 km/h (1 Bft) 97,92 %
13.11.2022 05:06 7,3 C 6,7 C 3,3 C 89 % 1025,9 hPa 0,0 l/m 0 min 0 min 0 W/m 3,2 km/h (1 Bft) 95,74 %
13.11.2022 05:08 7,3 C 6,7 C 3,3 C 89 % 1026,0 hPa 0,0 l/m 0 min 0 min 0 W/m 3,2 km/h (1 Bft) 95,74 %
13.11.2022 05:10 7,3 C 6,1 C 3,3 C 89 % 1025,9 hPa 0,0 l/m 0 min 0 min 0 W/m 3,2 km/h (1 Bft) 97,87 %
13.11.2022 05:12 7,3 C 6,1 C 3,3 C 89 % 1026,0 hPa 0,0 l/m 0 min 0 min 0 W/m 3,2 km/h (1 Bft) 97,87 %
13.11.2022 05:14 7,2 C 6,1 C 3,3 C 89 % 1026,0 hPa 0,0 l/m 0 min 0 min 0 W/m 3,2 km/h (1 Bft) 100,00 %
13.11.2022 05:16 7,2 C 6,1 C 3,3 C 89 % 1026,0 hPa 0,0 l/m 0 min 0 min 0 W/m 3,2 km/h (1 Bft) 100,00 %
13.11.2022 05:18 7,2 C 6,1 C 3,3 C 89 % 1026,0 hPa 0,0 l/m 0 min 0 min 0 W/m 6,4 km/h (2 Bft) 95,74 %
13.11.2022 05:20 7,2 C 6,1 C 3,3 C 89 % 1026,0 hPa 0,0 l/m 0 min 0 min 0 W/m 3,2 km/h (1 Bft) 100,00 %
13.11.2022 05:22 7,2 C 6,1 C 3,3 C 89 % 1026,0 hPa 0,0 l/m 0 min 0 min 0 W/m 3,2 km/h (1 Bft) 100,00 %
13.11.2022 05:24 7,2 C 6,1 C 3,3 C 89 % 1026,0 hPa 0,0 l/m 0 min 0 min 0 W/m 6,4 km/h (2 Bft) 97,87 %
13.11.2022 05:26 7,2 C 6,1 C 3,3 C 89 % 1025,9 hPa 0,0 l/m 0 min 0 min 0 W/m 3,2 km/h (1 Bft) 100,00 %
13.11.2022 05:28 7,2 C 6,1 C 3,3 C 89 % 1025,9 hPa 0,0 l/m 0 min 0 min 0 W/m 12,9 km/h (3 Bft) 97,83 %
13.11.2022 05:30 7,1 C 6,1 C 3,3 C 89 % 1025,9 hPa 0,0 l/m 0 min 0 min 0 W/m 3,2 km/h (1 Bft) 93,62 %
13.11.2022 05:32 7,1 C 6,1 C 3,3 C 89 % 1025,9 hPa 0,0 l/m 0 min 0 min 0 W/m 6,4 km/h (2 Bft) 97,87 %
13.11.2022 05:34 7,1 C 6,1 C 3,3 C 89 % 1025,9 hPa 0,0 l/m 0 min 0 min 0 W/m 3,2 km/h (1 Bft) 100,00 %
13.11.2022 05:36 7,1 C 6,1 C 3,3 C 89 % 1025,9 hPa 0,0 l/m 0 min 0 min 0 W/m 6,4 km/h (2 Bft) 97,87 %
13.11.2022 05:38 7,1 C 6,1 C 3,3 C 89 % 1025,8 hPa 0,0 l/m 0 min 0 min 0 W/m 3,2 km/h (1 Bft) 97,87 %
13.11.2022 05:40 7,1 C 6,1 C 3,3 C 89 % 1025,8 hPa 0,0 l/m 0 min 0 min 0 W/m 6,4 km/h (2 Bft) 100,00 %
13.11.2022 05:42 7,1 C 6,1 C 3,3 C 89 % 1025,9 hPa 0,0 l/m 0 min 0 min 0 W/m 3,2 km/h (1 Bft) 97,87 %
13.11.2022 05:44 7,1 C 6,1 C 3,3 C 89 % 1025,8 hPa 0,0 l/m 0 min 0 min 0 W/m 6,4 km/h (2 Bft) 100,00 %
13.11.2022 05:46 7,1 C 6,1 C 3,3 C 89 % 1025,9 hPa 0,0 l/m 0 min 0 min 0 W/m 6,4 km/h (2 Bft) 100,00 %
13.11.2022 05:48 7,1 C 6,1 C 3,3 C 89 % 1025,9 hPa 0,0 l/m 0 min 0 min 0 W/m 3,2 km/h (1 Bft) 97,87 %
13.11.2022 05:50 7,0 C 6,1 C 3,3 C 89 % 1025,9 hPa 0,0 l/m 0 min 0 min 0 W/m 3,2 km/h (1 Bft) 97,87 %
13.11.2022 05:52 7,0 C 6,1 C 3,3 C 89 % 1025,9 hPa 0,0 l/m 0 min 0 min 0 W/m 3,2 km/h (1 Bft) 97,83 %
13.11.2022 05:54 7,0 C 6,1 C 3,3 C 89 % 1025,9 hPa 0,0 l/m 0 min 0 min 0 W/m 3,2 km/h (1 Bft) 97,87 %
13.11.2022 05:56 7,0 C 6,1 C 3,3 C 89 % 1025,9 hPa 0,0 l/m 0 min 0 min 0 W/m 3,2 km/h (1 Bft) 97,87 %
13.11.2022 05:58 7,0 C 6,1 C 3,3 C 89 % 1025,9 hPa 0,0 l/m 0 min 0 min 0 W/m 3,2 km/h (1 Bft) 95,74 %
13.11.2022 06:00 7,0 C 6,1 C 3,3 C 89 % 1025,8 hPa 0,0 l/m 0 min 0 min 0 W/m 3,2 km/h (1 Bft) 95,74 %
13.11.2022 06:02 7,0 C 6,1 C 3,3 C 89 % 1025,8 hPa 0,0 l/m 0 min 0 min 0 W/m 3,2 km/h (1 Bft) 97,87 %
13.11.2022 06:04 7,0 C 6,1 C 3,3 C 89 % 1025,8 hPa 0,0 l/m 0 min 0 min 0 W/m 6,4 km/h (2 Bft) 97,92 %
13.11.2022 06:08 7,0 C 6,1 C 3,3 C 89 % 1025,8 hPa 0,0 l/m 0 min 0 min 0 W/m 6,4 km/h (2 Bft) 97,56 %
13.11.2022 06:10 7,0 C 6,1 C 3,3 C 89 % 1025,8 hPa 0,0 l/m 0 min 0 min 0 W/m 3,2 km/h (1 Bft) 93,62 %
13.11.2022 06:12 7,0 C 6,1 C 3,3 C 89 % 1025,8 hPa 0,0 l/m 0 min 0 min 0 W/m 3,2 km/h (1 Bft) 95,74 %
13.11.2022 06:14 7,0 C 6,1 C 3,3 C 89 % 1025,8 hPa 0,0 l/m 0 min 0 min 0 W/m 6,4 km/h (2 Bft) 93,62 %
13.11.2022 06:16 6,9 C 6,1 C 3,3 C 89 % 1025,7 hPa 0,0 l/m 0 min 0 min 0 W/m 3,2 km/h (1 Bft) 93,62 %
13.11.2022 06:18 6,9 C 6,1 C 3,3 C 89 % 1025,7 hPa 0,0 l/m 0 min 0 min 0 W/m 3,2 km/h (1 Bft) 97,83 %
13.11.2022 06:20 6,9 C 6,1 C 3,3 C 89 % 1025,6 hPa 0,0 l/m 0 min 0 min 0 W/m 3,2 km/h (1 Bft) 95,74 %
13.11.2022 06:22 6,9 C 6,1 C 3,3 C 89 % 1025,5 hPa 0,0 l/m 0 min 0 min 0 W/m 3,2 km/h (1 Bft) 100,00 %
13.11.2022 06:24 6,9 C 6,1 C 3,3 C 89 % 1025,5 hPa 0,0 l/m 0 min 0 min 0 W/m 9,7 km/h (2 Bft) 95,74 %
13.11.2022 06:26 6,9 C 6,1 C 3,3 C 89 % 1025,5 hPa 0,0 l/m 0 min 0 min 0 W/m 6,4 km/h (2 Bft) 97,87 %
13.11.2022 06:28 6,9 C 6,1 C 3,3 C 89 % 1025,5 hPa 0,0 l/m 0 min 0 min 0 W/m 12,9 km/h (3 Bft) 97,87 %
13.11.2022 06:30 6,9 C 6,1 C 3,3 C 89 % 1025,5 hPa 0,0 l/m 0 min 0 min 0 W/m 9,7 km/h (2 Bft) 97,83 %
13.11.2022 06:32 6,9 C 6,1 C 3,3 C 89 % 1025,5 hPa 0,0 l/m 0 min 0 min 0 W/m 6,4 km/h (2 Bft) 97,87 %
13.11.2022 06:34 6,9 C 6,1 C 3,3 C 89 % 1025,5 hPa 0,0 l/m 0 min 0 min 0 W/m 6,4 km/h (2 Bft) 97,87 %
13.11.2022 06:36 6,9 C 6,1 C 3,3 C 89 % 1025,5 hPa 0,0 l/m 0 min 0 min 0 W/m 3,2 km/h (1 Bft) 98,18 %
13.11.2022 06:38 6,9 C 6,1 C 3,3 C 89 % 1025,5 hPa 0,0 l/m 0 min 0 min 0 W/m 3,2 km/h (1 Bft) 97,87 %
13.11.2022 06:40 6,9 C 6,1 C 3,3 C 89 % 1025,4 hPa 0,0 l/m 0 min 0 min 0 W/m 6,4 km/h (2 Bft) 95,65 %
13.11.2022 06:42 6,9 C 6,1 C 3,3 C 89 % 1025,5 hPa 0,0 l/m 0 min 0 min 0 W/m 3,2 km/h (1 Bft) 95,74 %
13.11.2022 06:44 6,9 C 6,1 C 3,3 C 89 % 1025,5 hPa 0,0 l/m 0 min 0 min 0 W/m 6,4 km/h (2 Bft) 97,87 %
13.11.2022 06:46 6,9 C 6,1 C 3,3 C 89 % 1025,4 hPa 0,0 l/m 0 min 0 min 0 W/m 6,4 km/h (2 Bft) 97,87 %
13.11.2022 06:48 6,9 C 6,1 C 3,3 C 89 % 1025,4 hPa 0,0 l/m 0 min 0 min 0 W/m 3,2 km/h (1 Bft) 100,00 %
13.11.2022 06:50 6,9 C 6,1 C 2,8 C 89 % 1025,4 hPa 0,0 l/m 0 min 0 min 0 W/m 3,2 km/h (1 Bft) 100,00 %
13.11.2022 06:52 6,9 C 6,1 C 2,8 C 89 % 1025,4 hPa 0,0 l/m 0 min 0 min 0 W/m 6,4 km/h (2 Bft) 97,83 %
13.11.2022 06:54 6,8 C 6,1 C 2,8 C 89 % 1025,3 hPa 0,0 l/m 0 min 0 min 0 W/m 3,2 km/h (1 Bft) 97,87 %
13.11.2022 06:56 6,8 C 5,6 C 2,8 C 89 % 1025,3 hPa 0,0 l/m 0 min 0 min 0 W/m 3,2 km/h (1 Bft) 95,74 %
13.11.2022 06:58 6,8 C 5,6 C 2,8 C 89 % 1025,3 hPa 0,0 l/m 0 min 0 min 0 W/m 3,2 km/h (1 Bft) 39,39 %
13.11.2022 07:00 6,8 C 5,6 C 2,8 C 89 % 1025,3 hPa 0,0 l/m 0 min 0 min 0 W/m 3,2 km/h (1 Bft) 100,00 %
13.11.2022 07:02 6,8 C 5,6 C 2,8 C 89 % 1025,3 hPa 0,0 l/m 0 min 0 min 0 W/m 0,0 km/h (0 Bft) 100,00 %
13.11.2022 07:04 6,8 C 5,6 C 2,8 C 89 % 1025,4 hPa 0,0 l/m 0 min 0 min 0 W/m 0,0 km/h (0 Bft) 100,00 %
13.11.2022 07:06 6,7 C 5,6 C 2,2 C 89 % 1025,3 hPa 0,0 l/m 0 min 0 min 0 W/m 0,0 km/h (0 Bft) 100,00 %
13.11.2022 07:08 6,7 C 5,0 C 2,2 C 89 % 1025,3 hPa 0,0 l/m 0 min 0 min 0 W/m 0,0 km/h (0 Bft) 97,87 %
13.11.2022 07:10 6,6 C 5,0 C 2,2 C 89 % 1025,3 hPa 0,0 l/m 0 min 0 min 0 W/m 0,0 km/h (0 Bft) 100,00 %
13.11.2022 07:12 6,6 C 5,0 C 2,2 C 89 % 1025,2 hPa 0,0 l/m 0 min 0 min 0 W/m 0,0 km/h (0 Bft) 100,00 %
13.11.2022 07:14 6,6 C 5,0 C 2,2 C 89 % 1025,2 hPa 0,0 l/m 0 min 0 min 0 W/m 0,0 km/h (0 Bft) 100,00 %
13.11.2022 07:16 6,5 C 5,0 C 2,2 C 89 % 1025,2 hPa 0,0 l/m 0 min 0 min 0 W/m 0,0 km/h (0 Bft) 100,00 %
13.11.2022 07:18 6,5 C 5,0 C 2,2 C 89 % 1025,2 hPa 0,0 l/m 0 min 0 min 0 W/m 0,0 km/h (0 Bft) 100,00 %
13.11.2022 07:20 6,4 C 4,4 C 1,7 C 88 % 1025,1 hPa 0,0 l/m 0 min 0 min 0 W/m 0,0 km/h (0 Bft) 100,00 %
13.11.2022 07:22 6,4 C 4,4 C 1,7 C 89 % 1025,1 hPa 0,0 l/m 0 min 0 min 0 W/m 0,0 km/h (0 Bft) 97,87 %
13.11.2022 07:24 6,3 C 4,4 C 1,7 C 89 % 1025,0 hPa 0,0 l/m 0 min 0 min 0 W/m 0,0 km/h (0 Bft) 95,74 %
13.11.2022 07:26 6,3 C 4,4 C 1,7 C 89 % 1025,1 hPa 0,0 l/m 0 min 0 min 0 W/m 0,0 km/h (0 Bft) 97,87 %
13.11.2022 07:28 6,3 C 4,4 C 1,7 C 89 % 1025,1 hPa 0,0 l/m 0 min 0 min 0 W/m 0,0 km/h (0 Bft) 100,00 %
13.11.2022 07:30 6,2 C 4,4 C 1,7 C 89 % 1025,0 hPa 0,0 l/m 0 min 0 min 0 W/m 0,0 km/h (0 Bft) 97,87 %
13.11.2022 07:32 6,1 C 4,4 C 1,7 C 89 % 1025,0 hPa 0,0 l/m 0 min 0 min 0 W/m 0,0 km/h (0 Bft) 95,74 %
13.11.2022 07:34 6,1 C 4,4 C 1,7 C 89 % 1025,0 hPa 0,0 l/m 0 min 0 min 0 W/m 0,0 km/h (0 Bft) 97,87 %
13.11.2022 07:36 6,0 C 4,4 C 1,7 C 89 % 1025,0 hPa 0,0 l/m 0 min 0 min 0 W/m 0,0 km/h (0 Bft) 93,62 %
13.11.2022 07:38 5,9 C 4,4 C 1,7 C 89 % 1025,0 hPa 0,0 l/m 0 min 0 min 0 W/m 0,0 km/h (0 Bft) 89,36 %
13.11.2022 07:40 5,9 C 4,4 C 1,7 C 89 % 1025,0 hPa 0,0 l/m 0 min 0 min 0 W/m 0,0 km/h (0 Bft) 91,30 %
13.11.2022 07:42 5,9 C 3,9 C 1,7 C 89 % 1024,9 hPa 0,0 l/m 0 min 0 min 0 W/m 0,0 km/h (0 Bft) 95,74 %
13.11.2022 07:44 5,8 C 3,9 C 1,7 C 89 % 1024,9 hPa 0,0 l/m 0 min 0 min 4 W/m 0,0 km/h (0 Bft) 95,74 %
13.11.2022 07:46 5,8 C 3,9 C 1,1 C 89 % 1024,9 hPa 0,0 l/m 0 min 0 min 5 W/m 0,0 km/h (0 Bft) 95,74 %
13.11.2022 07:48 5,8 C 3,9 C 1,1 C 90 % 1024,9 hPa 0,0 l/m 0 min 0 min 5 W/m 0,0 km/h (0 Bft) 93,62 %
13.11.2022 07:53 5,7 C 3,9 C 1,1 C 90 % 1024,9 hPa 0,0 l/m 0 min 0 min 6 W/m 0,0 km/h (0 Bft) 98,48 %
13.11.2022 07:54 5,7 C 3,9 C 1,1 C 90 % 1024,9 hPa 0,0 l/m 0 min 0 min 7 W/m 0,0 km/h (0 Bft) 95,65 %
13.11.2022 07:56 5,6 C 3,9 C 1,1 C 90 % 1024,9 hPa 0,0 l/m 0 min 0 min 7 W/m 0,0 km/h (0 Bft) 95,24 %
13.11.2022 07:58 5,6 C 3,9 C 1,1 C 90 % 1024,9 hPa 0,0 l/m 0 min 0 min 8 W/m 0,0 km/h (0 Bft) 95,74 %
13.11.2022 08:00 5,6 C 3,9 C 1,1 C 90 % 1024,8 hPa 0,0 l/m 0 min 0 min 9 W/m 0,0 km/h (0 Bft) 97,87 %
13.11.2022 08:02 5,6 C 3,9 C 1,1 C 90 % 1024,8 hPa 0,0 l/m 0 min 0 min 9 W/m 0,0 km/h (0 Bft) 95,65 %
13.11.2022 08:04 5,5 C 4,4 C 1,1 C 90 % 1024,8 hPa 0,0 l/m 0 min 0 min 9 W/m 3,2 km/h (1 Bft) 97,87 %
13.11.2022 08:06 5,5 C 4,4 C 1,7 C 90 % 1024,8 hPa 0,0 l/m 0 min 0 min 11 W/m 3,2 km/h (1 Bft) 95,74 %
13.11.2022 08:08 5,4 C 4,4 C 1,7 C 90 % 1024,8 hPa 0,0 l/m 0 min 0 min 11 W/m 6,4 km/h (2 Bft) 93,62 %
13.11.2022 08:10 5,5 C 5,0 C 1,7 C 91 % 1024,8 hPa 0,0 l/m 0 min 0 min 11 W/m 12,9 km/h (3 Bft) 97,87 %
13.11.2022 08:12 5,5 C 5,0 C 2,2 C 91 % 1024,8 hPa 0,0 l/m 0 min 0 min 12 W/m 6,4 km/h (2 Bft) 97,83 %
13.11.2022 08:14 5,6 C 5,6 C 2,2 C 91 % 1024,8 hPa 0,0 l/m 0 min 0 min 12 W/m 6,4 km/h (2 Bft) 95,74 %
13.11.2022 08:16 5,7 C 5,6 C 2,2 C 91 % 1024,7 hPa 0,0 l/m 0 min 0 min 12 W/m 12,9 km/h (3 Bft) 95,74 %
13.11.2022 08:18 5,7 C 5,6 C 2,8 C 92 % 1024,7 hPa 0,0 l/m 0 min 0 min 12 W/m 16,1 km/h (3 Bft) 97,87 %
13.11.2022 08:20 5,8 C 6,1 C 2,8 C 92 % 1024,7 hPa 0,0 l/m 0 min 0 min 12 W/m 6,4 km/h (2 Bft) 95,74 %
13.11.2022 08:22 5,9 C 6,1 C 2,8 C 92 % 1024,7 hPa 0,0 l/m 0 min 0 min 13 W/m 12,9 km/h (3 Bft) 95,74 %
13.11.2022 08:24 6,0 C 6,1 C 2,8 C 92 % 1024,7 hPa 0,0 l/m 0 min 0 min 14 W/m 6,4 km/h (2 Bft) 93,48 %
13.11.2022 08:26 6,1 C 6,1 C 2,8 C 92 % 1024,7 hPa 0,0 l/m 0 min 0 min 14 W/m 6,4 km/h (2 Bft) 95,74 %
13.11.2022 08:28 6,1 C 6,1 C 2,8 C 92 % 1024,7 hPa 0,0 l/m 0 min 0 min 14 W/m 6,4 km/h (2 Bft) 93,62 %
13.11.2022 08:30 6,2 C 6,1 C 2,8 C 91 % 1024,6 hPa 0,0 l/m 0 min 0 min 16 W/m 16,1 km/h (3 Bft) 95,74 %
13.11.2022 08:32 6,2 C 6,1 C 2,8 C 91 % 1024,6 hPa 0,0 l/m 0 min 0 min 16 W/m 6,4 km/h (2 Bft) 95,74 %
13.11.2022 08:34 6,3 C 6,1 C 2,8 C 91 % 1024,6 hPa 0,0 l/m 0 min 0 min 16 W/m 6,4 km/h (2 Bft) 95,74 %
13.11.2022 08:36 6,3 C 6,1 C 2,8 C 91 % 1024,7 hPa 0,0 l/m 0 min 0 min 16 W/m 6,4 km/h (2 Bft) 93,48 %
13.11.2022 08:38 6,3 C 6,1 C 2,8 C 91 % 1024,6 hPa 0,0 l/m 0 min 0 min 16 W/m 12,9 km/h (3 Bft) 97,87 %
13.11.2022 08:40 6,3 C 6,1 C 2,8 C 91 % 1024,6 hPa 0,0 l/m 0 min 0 min 18 W/m 6,4 km/h (2 Bft) 97,87 %
13.11.2022 08:42 6,4 C 6,1 C 2,8 C 90 % 1024,7 hPa 0,0 l/m 0 min 0 min 18 W/m 12,9 km/h (3 Bft) 95,74 %
13.11.2022 08:44 6,4 C 6,1 C 2,8 C 90 % 1024,7 hPa 0,0 l/m 0 min 0 min 18 W/m 12,9 km/h (3 Bft) 95,74 %
13.11.2022 08:46 6,4 C 6,1 C 3,3 C 90 % 1024,6 hPa 0,0 l/m 0 min 0 min 17 W/m 12,9 km/h (3 Bft) 97,87 %
13.11.2022 08:48 6,5 C 6,1 C 3,3 C 90 % 1024,6 hPa 0,0 l/m 0 min 0 min 18 W/m 16,1 km/h (3 Bft) 97,83 %
13.11.2022 08:50 6,5 C 6,1 C 3,3 C 90 % 1024,6 hPa 0,0 l/m 0 min 0 min 18 W/m 16,1 km/h (3 Bft) 95,74 %
13.11.2022 08:52 6,5 C 6,1 C 3,3 C 90 % 1024,6 hPa 0,0 l/m 0 min 0 min 19 W/m 16,1 km/h (3 Bft) 97,87 %
13.11.2022 08:54 6,6 C 6,1 C 3,3 C 90 % 1024,6 hPa 0,0 l/m 0 min 0 min 19 W/m 6,4 km/h (2 Bft) 95,74 %
13.11.2022 08:56 6,6 C 6,7 C 3,3 C 90 % 1024,6 hPa 0,0 l/m 0 min 0 min 18 W/m 16,1 km/h (3 Bft) 97,87 %
13.11.2022 08:58 6,7 C 6,7 C 3,3 C 89 % 1024,6 hPa 0,0 l/m 0 min 0 min 19 W/m 12,9 km/h (3 Bft) 100,00 %
13.11.2022 09:00 6,7 C 6,7 C 3,3 C 89 % 1024,6 hPa 0,0 l/m 0 min 0 min 19 W/m 12,9 km/h (3 Bft) 100,00 %
13.11.2022 09:02 6,7 C 6,7 C 3,3 C 89 % 1024,5 hPa 0,0 l/m 0 min 0 min 19 W/m 12,9 km/h (3 Bft) 100,00 %
13.11.2022 09:04 6,8 C 6,7 C 3,3 C 89 % 1024,5 hPa 0,0 l/m 0 min 0 min 19 W/m 12,9 km/h (3 Bft) 95,74 %
13.11.2022 09:06 6,8 C 6,7 C 3,3 C 89 % 1024,4 hPa 0,0 l/m 0 min 0 min 21 W/m 12,9 km/h (3 Bft) 100,00 %
13.11.2022 09:08 6,8 C 6,7 C 3,3 C 88 % 1024,4 hPa 0,0 l/m 0 min 0 min 22 W/m 16,1 km/h (3 Bft) 100,00 %
13.11.2022 09:10 6,9 C 6,7 C 3,3 C 88 % 1024,4 hPa 0,0 l/m 0 min 0 min 22 W/m 9,7 km/h (2 Bft) 97,87 %
13.11.2022 09:12 6,9 C 6,7 C 3,3 C 88 % 1024,4 hPa 0,0 l/m 0 min 0 min 21 W/m 12,9 km/h (3 Bft) 97,83 %
13.11.2022 09:14 6,9 C 6,7 C 3,3 C 88 % 1024,4 hPa 0,0 l/m 0 min 0 min 21 W/m 12,9 km/h (3 Bft) 100,00 %
13.11.2022 09:16 7,0 C 6,7 C 3,3 C 87 % 1024,4 hPa 0,0 l/m 0 min 0 min 22 W/m 12,9 km/h (3 Bft) 100,00 %
13.11.2022 09:18 7,0 C 6,7 C 3,3 C 87 % 1024,4 hPa 0,0 l/m 0 min 0 min 25 W/m 12,9 km/h (3 Bft) 95,74 %
13.11.2022 09:20 7,1 C 6,7 C 3,3 C 87 % 1024,4 hPa 0,0 l/m 0 min 0 min 27 W/m 6,4 km/h (2 Bft) 97,87 %
13.11.2022 09:22 7,1 C 7,2 C 3,9 C 87 % 1024,4 hPa 0,0 l/m 0 min 0 min 27 W/m 12,9 km/h (3 Bft) 95,74 %
13.11.2022 09:24 7,1 C 7,2 C 3,9 C 87 % 1024,3 hPa 0,0 l/m 0 min 0 min 28 W/m 6,4 km/h (2 Bft) 97,83 %
13.11.2022 09:26 7,2 C 7,2 C 3,9 C 87 % 1024,3 hPa 0,0 l/m 0 min 0 min 35 W/m 12,9 km/h (3 Bft) 97,87 %
13.11.2022 09:28 7,3 C 7,2 C 3,9 C 87 % 1024,3 hPa 0,0 l/m 0 min 0 min 67 W/m 6,4 km/h (2 Bft) 97,87 %
13.11.2022 09:30 7,3 C 7,2 C 3,9 C 86 % 1024,3 hPa 0,0 l/m 0 min 0 min 66 W/m 6,4 km/h (2 Bft) 97,87 %
13.11.2022 09:32 7,4 C 7,2 C 3,9 C 86 % 1024,3 hPa 0,0 l/m 0 min 0 min 99 W/m 12,9 km/h (3 Bft) 97,87 %
13.11.2022 09:34 7,4 C 7,2 C 3,9 C 86 % 1024,3 hPa 0,0 l/m 0 min 0 min 43 W/m 3,2 km/h (1 Bft) 97,87 %
13.11.2022 09:36 7,5 C 7,8 C 3,9 C 86 % 1024,3 hPa 0,0 l/m 0 min 0 min 39 W/m 3,2 km/h (1 Bft) 97,83 %
13.11.2022 09:38 7,6 C 7,8 C 3,9 C 86 % 1024,3 hPa 0,0 l/m 2 min 0 min 134 W/m 12,9 km/h (3 Bft) 97,87 %
13.11.2022 09:40 7,6 C 7,8 C 4,4 C 86 % 1024,3 hPa 0,0 l/m 2 min 0 min 224 W/m 6,4 km/h (2 Bft) 95,74 %
13.11.2022 09:42 7,7 C 7,8 C 4,4 C 85 % 1024,3 hPa 0,0 l/m 2 min 0 min 219 W/m 6,4 km/h (2 Bft) 95,74 %
13.11.2022 09:44 7,8 C 7,8 C 4,4 C 85 % 1024,2 hPa 0,0 l/m 2 min 0 min 221 W/m 6,4 km/h (2 Bft) 95,74 %
13.11.2022 09:46 7,8 C 7,8 C 4,4 C 85 % 1024,2 hPa 0,0 l/m 2 min 0 min 237 W/m 3,2 km/h (1 Bft) 97,87 %
13.11.2022 09:48 7,9 C 7,8 C 4,4 C 85 % 1024,2 hPa 0,0 l/m 2 min 0 min 245 W/m 6,4 km/h (2 Bft) 100,00 %
13.11.2022 09:50 8,0 C 8,3 C 4,4 C 85 % 1024,1 hPa 0,0 l/m 2 min 0 min 240 W/m 16,1 km/h (3 Bft) 97,87 %
13.11.2022 09:52 8,1 C 8,3 C 4,4 C 84 % 1024,1 hPa 0,0 l/m 2 min 0 min 232 W/m 12,9 km/h (3 Bft) 97,87 %
13.11.2022 09:54 8,2 C 8,3 C 4,4 C 84 % 1024,1 hPa 0,0 l/m 2 min 0 min 208 W/m 12,9 km/h (3 Bft) 100,00 %
13.11.2022 09:56 8,3 C 8,3 C 4,4 C 83 % 1024,1 hPa 0,0 l/m 2 min 0 min 196 W/m 6,4 km/h (2 Bft) 100,00 %
13.11.2022 09:58 8,4 C 8,9 C 4,4 C 83 % 1024,0 hPa 0,0 l/m 2 min 0 min 126 W/m 12,9 km/h (3 Bft) 100,00 %
13.11.2022 10:00 8,6 C 8,9 C 4,4 C 83 % 1024,0 hPa 0,0 l/m 2 min 0 min 128 W/m 12,9 km/h (3 Bft) 100,00 %
13.11.2022 10:02 8,7 C 8,9 C 5,0 C 83 % 1024,0 hPa 0,0 l/m 2 min 0 min 263 W/m 12,9 km/h (3 Bft) 100,00 %
13.11.2022 10:04 8,8 C 9,4 C 5,0 C 82 % 1024,0 hPa 0,0 l/m 2 min 0 min 259 W/m 6,4 km/h (2 Bft) 100,00 %
13.11.2022 10:06 8,9 C 10,6 C 5,0 C 82 % 1024,0 hPa 0,0 l/m 2 min 0 min 252 W/m 12,9 km/h (3 Bft) 100,00 %
13.11.2022 10:08 9,1 C 11,7 C 5,0 C 82 % 1024,0 hPa 0,0 l/m 2 min 0 min 260 W/m 9,7 km/h (2 Bft) 100,00 %
13.11.2022 10:10 9,2 C 12,8 C 5,0 C 81 % 1023,9 hPa 0,0 l/m 2 min 0 min 273 W/m 16,1 km/h (3 Bft) 100,00 %
13.11.2022 10:12 9,3 C 15,0 C 5,0 C 81 % 1023,9 hPa 0,0 l/m 2 min 0 min 285 W/m 6,4 km/h (2 Bft) 100,00 %
13.11.2022 10:14 9,5 C 16,7 C 5,0 C 81 % 1023,9 hPa 0,0 l/m 2 min 0 min 291 W/m 6,4 km/h (2 Bft) 100,00 %
13.11.2022 10:16 9,7 C 17,2 C 5,0 C 80 % 1023,9 hPa 0,0 l/m 2 min 0 min 294 W/m 6,4 km/h (2 Bft) 100,00 %
13.11.2022 10:18 9,8 C 17,8 C 5,0 C 79 % 1023,9 hPa 0,0 l/m 2 min 0 min 297 W/m 6,4 km/h (2 Bft) 100,00 %
13.11.2022 10:20 9,9 C 18,3 C 5,0 C 78 % 1023,8 hPa 0,0 l/m 2 min 0 min 300 W/m 6,4 km/h (2 Bft) 100,00 %
13.11.2022 10:22 10,1 C 18,9 C 5,6 C 78 % 1023,8 hPa 0,0 l/m 2 min 0 min 303 W/m 12,9 km/h (3 Bft) 100,00 %
13.11.2022 10:24 10,3 C 18,9 C 5,6 C 77 % 1023,8 hPa 0,0 l/m 2 min 0 min 306 W/m 6,4 km/h (2 Bft) 100,00 %
13.11.2022 10:26 10,4 C 20,0 C 5,6 C 77 % 1023,7 hPa 0,0 l/m 2 min 0 min 309 W/m 3,2 km/h (1 Bft) 100,00 %
13.11.2022 10:28 10,6 C 20,6 C 5,6 C 77 % 1023,8 hPa 0,0 l/m 2 min 0 min 311 W/m 3,2 km/h (1 Bft) 97,87 %
13.11.2022 10:30 10,7 C 20,6 C 5,6 C 77 % 1023,7 hPa 0,0 l/m 2 min 0 min 315 W/m 6,4 km/h (2 Bft) 95,74 %
13.11.2022 10:32 10,8 C 20,0 C 5,6 C 76 % 1023,7 hPa 0,0 l/m 2 min 0 min 317 W/m 12,9 km/h (3 Bft) 98,15 %
13.11.2022 10:34 10,9 C 19,4 C 5,6 C 76 % 1023,7 hPa 0,0 l/m 2 min 0 min 286 W/m 12,9 km/h (3 Bft) 97,87 %
13.11.2022 10:36 11,1 C 18,3 C 5,6 C 75 % 1023,7 hPa 0,0 l/m 2 min 0 min 303 W/m 6,4 km/h (2 Bft) 97,87 %
13.11.2022 10:38 11,2 C 16,7 C 5,6 C 75 % 1023,7 hPa 0,0 l/m 2 min 0 min 201 W/m 12,9 km/h (3 Bft) 97,83 %
13.11.2022 10:40 11,2 C 15,6 C 6,1 C 74 % 1023,7 hPa 0,0 l/m 0 min 0 min 120 W/m 12,9 km/h (3 Bft) 95,74 %
13.11.2022 10:42 11,3 C 15,0 C 6,1 C 74 % 1023,7 hPa 0,0 l/m 0 min 0 min 110 W/m 6,4 km/h (2 Bft) 97,87 %
13.11.2022 10:44 11,4 C 14,4 C 6,1 C 73 % 1023,7 hPa 0,0 l/m 2 min 0 min 244 W/m 12,9 km/h (3 Bft) 97,87 %
13.11.2022 10:45 11,4 C 14,4 C 6,1 C 72 % 1023,7 hPa 0,0 l/m 1 min 0 min 227 W/m 12,9 km/h (3 Bft) 100,00 %
13.11.2022 10:50 11,6 C 13,3 C 6,1 C 72 % 1023,7 hPa 0,0 l/m 0 min 0 min 114 W/m 12,9 km/h (3 Bft) 99,12 %
13.11.2022 10:52 11,7 C 13,3 C 6,1 C 72 % 1023,7 hPa 0,0 l/m 2 min 0 min 160 W/m 3,2 km/h (1 Bft) 100,00 %
13.11.2022 10:54 11,8 C 13,3 C 6,1 C 73 % 1023,7 hPa 0,0 l/m 0 min 0 min 144 W/m 3,2 km/h (1 Bft) 97,78 %
13.11.2022 10:56 11,8 C 12,8 C 6,7 C 72 % 1023,7 hPa 0,0 l/m 0 min 0 min 121 W/m 3,2 km/h (1 Bft) 95,74 %
13.11.2022 10:58 11,9 C 12,8 C 6,7 C 72 % 1023,7 hPa 0,0 l/m 0 min 0 min 95 W/m 12,9 km/h (3 Bft) 95,74 %
13.11.2022 11:02 12,0 C 12,2 C 6,7 C 71 % 1023,6 hPa 0,0 l/m 0 min 0 min 33 W/m 12,9 km/h (3 Bft) 97,56 %
13.11.2022 11:06 12,1 C 12,2 C 6,7 C 71 % 1023,6 hPa 0,0 l/m 0 min 0 min 32 W/m 12,9 km/h (3 Bft) 97,09 %
13.11.2022 11:10 12,2 C 12,2 C 7,2 C 70 % 1023,6 hPa 0,0 l/m 0 min 0 min 32 W/m 6,4 km/h (2 Bft) 97,89 %
13.11.2022 11:14 12,3 C 12,2 C 7,2 C 69 % 1023,6 hPa 0,0 l/m 0 min 0 min 32 W/m 6,4 km/h (2 Bft) 98,91 %
13.11.2022 11:18 12,5 C 12,8 C 7,8 C 67 % 1023,5 hPa 0,0 l/m 0 min 0 min 32 W/m 12,9 km/h (3 Bft) 98,94 %
13.11.2022 11:22 12,7 C 12,8 C 7,8 C 65 % 1023,5 hPa 0,0 l/m 0 min 0 min 32 W/m 12,9 km/h (3 Bft) 97,85 %
13.11.2022 11:26 12,8 C 12,8 C 7,8 C 64 % 1023,5 hPa 0,0 l/m 0 min 0 min 32 W/m 12,9 km/h (3 Bft) 98,90 %
13.11.2022 11:30 12,9 C 12,8 C 7,8 C 65 % 1023,5 hPa 0,0 l/m 0 min 0 min 33 W/m 16,1 km/h (3 Bft) 100,00 %
13.11.2022 11:34 13,0 C 12,8 C 8,3 C 64 % 1023,5 hPa 0,0 l/m 0 min 0 min 32 W/m 12,9 km/h (3 Bft) 100,00 %
13.11.2022 11:36 13,1 C 12,8 C 7,8 C 63 % 1023,5 hPa 0,0 l/m 0 min 0 min 32 W/m 12,9 km/h (3 Bft) 100,00 %
13.11.2022 11:38 13,1 C 12,8 C 8,3 C 63 % 1023,4 hPa 0,0 l/m 0 min 0 min 32 W/m 16,1 km/h (3 Bft) 97,87 %
13.11.2022 11:40 13,1 C 12,8 C 7,8 C 64 % 1023,5 hPa 0,0 l/m 0 min 0 min 32 W/m 6,4 km/h (2 Bft) 100,00 %
13.11.2022 11:42 13,1 C 12,8 C 7,8 C 64 % 1023,5 hPa 0,0 l/m 0 min 0 min 32 W/m 6,4 km/h (2 Bft) 100,00 %
13.11.2022 11:44 13,2 C 12,8 C 7,8 C 64 % 1023,4 hPa 0,0 l/m 0 min 0 min 32 W/m 6,4 km/h (2 Bft) 100,00 %
13.11.2022 11:46 13,2 C 12,8 C 7,8 C 65 % 1023,5 hPa 0,0 l/m 0 min 0 min 32 W/m 6,4 km/h (2 Bft) 100,00 %
13.11.2022 11:48 13,2 C 12,8 C 7,8 C 65 % 1023,4 hPa 0,0 l/m 0 min 0 min 33 W/m 6,4 km/h (2 Bft) 100,00 %
13.11.2022 11:50 13,2 C 12,8 C 7,8 C 65 % 1023,4 hPa 0,0 l/m 0 min 0 min 34 W/m 3,2 km/h (1 Bft) 100,00 %
13.11.2022 11:52 13,3 C 12,8 C 8,3 C 65 % 1023,3 hPa 0,0 l/m 0 min 0 min 32 W/m 16,1 km/h (3 Bft) 100,00 %
13.11.2022 11:54 13,3 C 12,8 C 8,3 C 63 % 1023,3 hPa 0,0 l/m 0 min 0 min 33 W/m 16,1 km/h (3 Bft) 100,00 %
13.11.2022 11:56 13,3 C 12,8 C 8,3 C 63 % 1023,3 hPa 0,0 l/m 0 min 0 min 38 W/m 16,1 km/h (3 Bft) 97,87 %
13.11.2022 11:58 13,4 C 13,3 C 8,3 C 63 % 1023,3 hPa 0,0 l/m 0 min 0 min 33 W/m 12,9 km/h (3 Bft) 95,74 %
13.11.2022 12:00 13,4 C 13,3 C 8,3 C 63 % 1023,3 hPa 0,0 l/m 0 min 0 min 39 W/m 12,9 km/h (3 Bft) 97,87 %
13.11.2022 12:02 13,4 C 13,3 C 8,3 C 63 % 1023,2 hPa 0,0 l/m 0 min 0 min 34 W/m 12,9 km/h (3 Bft) 97,87 %
13.11.2022 12:04 13,5 C 13,3 C 8,3 C 64 % 1023,2 hPa 0,0 l/m 0 min 0 min 33 W/m 6,4 km/h (2 Bft) 97,83 %
13.11.2022 12:08 13,6 C 13,3 C 8,3 C 64 % 1023,1 hPa 0,0 l/m 0 min 0 min 33 W/m 6,4 km/h (2 Bft) 95,74 %
13.11.2022 12:10 13,6 C 13,3 C 8,3 C 64 % 1023,1 hPa 0,0 l/m 0 min 0 min 33 W/m 12,9 km/h (3 Bft) 97,87 %
13.11.2022 12:12 13,6 C 13,3 C 8,3 C 64 % 1023,0 hPa 0,0 l/m 0 min 0 min 33 W/m 16,1 km/h (3 Bft) 95,74 %
13.11.2022 12:14 13,7 C 13,3 C 8,3 C 64 % 1023,0 hPa 0,0 l/m 0 min 0 min 33 W/m 6,4 km/h (2 Bft) 95,74 %
13.11.2022 12:16 13,7 C 13,3 C 8,3 C 64 % 1023,0 hPa 0,0 l/m 0 min 0 min 33 W/m 3,2 km/h (1 Bft) 95,65 %
13.11.2022 12:18 13,7 C 13,3 C 8,3 C 65 % 1022,9 hPa 0,0 l/m 0 min 0 min 33 W/m 6,4 km/h (2 Bft) 93,62 %
13.11.2022 12:20 13,7 C 13,3 C 8,3 C 64 % 1023,0 hPa 0,0 l/m 0 min 0 min 33 W/m 6,4 km/h (2 Bft) 93,62 %
13.11.2022 12:22 13,7 C 13,3 C 8,3 C 64 % 1022,9 hPa 0,0 l/m 0 min 0 min 33 W/m 6,4 km/h (2 Bft) 93,62 %
13.11.2022 12:24 13,8 C 13,3 C 8,3 C 64 % 1022,9 hPa 0,0 l/m 0 min 0 min 33 W/m 12,9 km/h (3 Bft) 95,74 %
13.11.2022 12:26 13,8 C 13,3 C 8,3 C 63 % 1022,9 hPa 0,0 l/m 0 min 0 min 33 W/m 6,4 km/h (2 Bft) 93,62 %
13.11.2022 12:28 13,9 C 13,9 C 8,9 C 63 % 1022,9 hPa 0,0 l/m 0 min 0 min 33 W/m 12,9 km/h (3 Bft) 95,65 %
13.11.2022 12:30 13,9 C 13,9 C 8,3 C 63 % 1022,9 hPa 0,0 l/m 0 min 0 min 33 W/m 6,4 km/h (2 Bft) 97,87 %
13.11.2022 12:32 14,0 C 13,9 C 8,9 C 63 % 1022,9 hPa 0,0 l/m 0 min 0 min 33 W/m 6,4 km/h (2 Bft) 95,74 %
13.11.2022 12:34 14,0 C 13,9 C 8,9 C 64 % 1022,8 hPa 0,0 l/m 0 min 0 min 36 W/m 6,4 km/h (2 Bft) 97,87 %
13.11.2022 12:36 14,1 C 13,9 C 8,9 C 63 % 1022,8 hPa 0,0 l/m 0 min 0 min 38 W/m 6,4 km/h (2 Bft) 100,00 %
13.11.2022 12:38 14,1 C 13,9 C 8,9 C 63 % 1022,8 hPa 0,0 l/m 0 min 0 min 35 W/m 6,4 km/h (2 Bft) 97,87 %
13.11.2022 12:40 14,2 C 14,4 C 8,9 C 63 % 1022,8 hPa 0,0 l/m 0 min 0 min 33 W/m 3,2 km/h (1 Bft) 97,83 %
13.11.2022 12:42 14,3 C 14,4 C 8,9 C 62 % 1022,8 hPa 0,0 l/m 0 min 0 min 34 W/m 19,3 km/h (3 Bft) 95,74 %
13.11.2022 12:44 14,3 C 14,4 C 8,9 C 62 % 1022,7 hPa 0,0 l/m 0 min 0 min 97 W/m 3,2 km/h (1 Bft) 97,87 %
13.11.2022 12:46 14,3 C 15,0 C 8,9 C 61 % 1022,7 hPa 0,0 l/m 0 min 0 min 95 W/m 12,9 km/h (3 Bft) 97,87 %
13.11.2022 12:48 14,3 C 15,0 C 8,9 C 62 % 1022,7 hPa 0,0 l/m 0 min 0 min 144 W/m 6,4 km/h (2 Bft) 100,00 %
13.11.2022 12:50 14,3 C 15,0 C 8,9 C 62 % 1022,7 hPa 0,0 l/m 0 min 0 min 59 W/m 6,4 km/h (2 Bft) 100,00 %
13.11.2022 12:52 14,4 C 15,6 C 8,9 C 62 % 1022,6 hPa 0,0 l/m 0 min 0 min 53 W/m 6,4 km/h (2 Bft) 100,00 %
13.11.2022 12:54 14,4 C 16,1 C 8,9 C 62 % 1022,6 hPa 0,0 l/m 0 min 0 min 74 W/m 3,2 km/h (1 Bft) 100,00 %
13.11.2022 12:56 14,5 C 16,1 C 8,9 C 62 % 1022,7 hPa 0,0 l/m 0 min 0 min 130 W/m 3,2 km/h (1 Bft) 100,00 %
13.11.2022 12:58 14,6 C 16,7 C 8,9 C 62 % 1022,6 hPa 0,0 l/m 2 min 0 min 224 W/m 6,4 km/h (2 Bft) 100,00 %
13.11.2022 13:00 14,7 C 17,2 C 8,9 C 61 % 1022,6 hPa 0,0 l/m 2 min 0 min 235 W/m 6,4 km/h (2 Bft) 100,00 %
13.11.2022 13:02 14,7 C 17,2 C 8,9 C 60 % 1022,5 hPa 0,0 l/m 2 min 0 min 243 W/m 6,4 km/h (2 Bft) 100,00 %
13.11.2022 13:04 14,8 C 18,3 C 8,9 C 59 % 1022,5 hPa 0,0 l/m 2 min 0 min 201 W/m 12,9 km/h (3 Bft) 100,00 %
13.11.2022 13:06 14,8 C 19,4 C 9,4 C 59 % 1022,4 hPa 0,0 l/m 2 min 0 min 350 W/m 6,4 km/h (2 Bft) 98,11 %
13.11.2022 13:08 14,9 C 20,0 C 8,9 C 59 % 1022,4 hPa 0,0 l/m 2 min 0 min 382 W/m 3,2 km/h (1 Bft) 100,00 %
13.11.2022 13:10 15,1 C 19,4 C 9,4 C 59 % 1022,4 hPa 0,0 l/m 2 min 0 min 381 W/m 3,2 km/h (1 Bft) 100,00 %
13.11.2022 13:12 15,1 C 18,9 C 9,4 C 58 % 1022,3 hPa 0,0 l/m 2 min 0 min 381 W/m 3,2 km/h (1 Bft) 100,00 %
13.11.2022 13:14 15,2 C 17,8 C 9,4 C 58 % 1022,3 hPa 0,0 l/m 2 min 0 min 380 W/m 3,2 km/h (1 Bft) 100,00 %
13.11.2022 13:16 15,3 C 17,2 C 8,9 C 58 % 1022,2 hPa 0,0 l/m 2 min 0 min 378 W/m 3,2 km/h (1 Bft) 97,83 %
13.11.2022 13:18 15,4 C 16,7 C 8,9 C 57 % 1022,2 hPa 0,0 l/m 2 min 0 min 376 W/m 3,2 km/h (1 Bft) 95,74 %
13.11.2022 13:20 15,5 C 16,7 C 8,9 C 57 % 1022,2 hPa 0,0 l/m 2 min 0 min 375 W/m 3,2 km/h (1 Bft) 95,74 %
13.11.2022 13:22 15,6 C 16,7 C 9,4 C 57 % 1022,2 hPa 0,0 l/m 2 min 0 min 374 W/m 9,7 km/h (2 Bft) 97,87 %
13.11.2022 13:24 15,7 C 16,7 C 9,4 C 56 % 1022,1 hPa 0,0 l/m 2 min 0 min 372 W/m 6,4 km/h (2 Bft) 95,74 %
13.11.2022 13:26 15,8 C 17,2 C 9,4 C 55 % 1022,0 hPa 0,0 l/m 2 min 0 min 371 W/m 12,9 km/h (3 Bft) 97,87 %
13.11.2022 13:28 15,9 C 17,2 C 9,4 C 56 % 1021,9 hPa 0,0 l/m 2 min 0 min 368 W/m 3,2 km/h (1 Bft) 95,65 %
13.11.2022 13:30 16,0 C 17,8 C 9,4 C 55 % 1021,9 hPa 0,0 l/m 2 min 0 min 367 W/m 3,2 km/h (1 Bft) 95,74 %
13.11.2022 13:32 16,1 C 18,3 C 9,4 C 55 % 1021,9 hPa 0,0 l/m 2 min 0 min 365 W/m 3,2 km/h (1 Bft) 97,87 %
13.11.2022 13:34 16,2 C 18,9 C 9,4 C 55 % 1021,8 hPa 0,0 l/m 2 min 0 min 362 W/m 6,4 km/h (2 Bft) 97,87 %
13.11.2022 13:36 16,2 C 18,3 C 9,4 C 55 % 1021,8 hPa 0,0 l/m 2 min 0 min 360 W/m 6,4 km/h (2 Bft) 95,74 %
13.11.2022 13:38 16,3 C 17,8 C 9,4 C 55 % 1021,8 hPa 0,0 l/m 2 min 0 min 359 W/m 6,4 km/h (2 Bft) 95,74 %
13.11.2022 13:40 16,3 C 17,2 C 8,9 C 55 % 1021,8 hPa 0,0 l/m 2 min 0 min 356 W/m 3,2 km/h (1 Bft) 95,65 %
13.11.2022 13:42 16,3 C 16,7 C 8,9 C 54 % 1021,7 hPa 0,0 l/m 2 min 0 min 353 W/m 3,2 km/h (1 Bft) 93,62 %
13.11.2022 13:44 16,4 C 16,7 C 8,9 C 55 % 1021,7 hPa 0,0 l/m 2 min 0 min 351 W/m 3,2 km/h (1 Bft) 97,87 %
13.11.2022 13:46 16,4 C 16,7 C 8,9 C 55 % 1021,6 hPa 0,0 l/m 2 min 0 min 349 W/m 12,9 km/h (3 Bft) 97,87 %
13.11.2022 13:48 16,5 C 16,7 C 9,4 C 54 % 1021,6 hPa 0,0 l/m 2 min 0 min 344 W/m 6,4 km/h (2 Bft) 97,87 %
13.11.2022 13:50 16,6 C 16,7 C 9,4 C 54 % 1021,6 hPa 0,0 l/m 2 min 0 min 271 W/m 6,4 km/h (2 Bft) 95,74 %
13.11.2022 13:52 16,6 C 16,7 C 9,4 C 53 % 1021,6 hPa 0,0 l/m 2 min 0 min 308 W/m 6,4 km/h (2 Bft) 100,00 %
13.11.2022 13:54 16,6 C 16,7 C 9,4 C 53 % 1021,6 hPa 0,0 l/m 2 min 0 min 339 W/m 3,2 km/h (1 Bft) 98,00 %
13.11.2022 13:56 16,6 C 16,7 C 9,4 C 53 % 1021,6 hPa 0,0 l/m 2 min 0 min 336 W/m 3,2 km/h (1 Bft) 100,00 %
13.11.2022 13:58 16,7 C 16,1 C 9,4 C 53 % 1021,5 hPa 0,0 l/m 2 min 0 min 333 W/m 6,4 km/h (2 Bft) 97,87 %
13.11.2022 14:00 16,7 C 16,1 C 9,4 C 53 % 1021,5 hPa 0,0 l/m 2 min 0 min 331 W/m 6,4 km/h (2 Bft) 97,87 %
13.11.2022 14:02 16,7 C 16,1 C 9,4 C 53 % 1021,5 hPa 0,0 l/m 2 min 0 min 328 W/m 6,4 km/h (2 Bft) 100,00 %
13.11.2022 14:04 16,7 C 16,7 C 9,4 C 53 % 1021,5 hPa 0,0 l/m 2 min 0 min 324 W/m 3,2 km/h (1 Bft) 97,92 %
13.11.2022 14:06 16,8 C 17,8 C 8,9 C 53 % 1021,4 hPa 0,0 l/m 2 min 0 min 321 W/m 0,0 km/h (0 Bft) 100,00 %
13.11.2022 14:08 16,8 C 17,8 C 8,9 C 54 % 1021,4 hPa 0,0 l/m 2 min 0 min 318 W/m 0,0 km/h (0 Bft) 97,87 %
13.11.2022 14:10 16,8 C 17,8 C 8,9 C 53 % 1021,4 hPa 0,0 l/m 2 min 0 min 314 W/m 3,2 km/h (1 Bft) 100,00 %
13.11.2022 14:12 16,8 C 17,8 C 8,9 C 53 % 1021,3 hPa 0,0 l/m 2 min 0 min 310 W/m 6,4 km/h (2 Bft) 100,00 %
13.11.2022 14:14 16,8 C 17,8 C 8,9 C 54 % 1021,3 hPa 0,0 l/m 2 min 0 min 307 W/m 6,4 km/h (2 Bft) 100,00 %
13.11.2022 14:16 16,8 C 17,8 C 8,9 C 54 % 1021,3 hPa 0,0 l/m 2 min 0 min 302 W/m 3,2 km/h (1 Bft) 97,87 %
13.11.2022 14:18 16,9 C 17,8 C 8,3 C 54 % 1021,2 hPa 0,0 l/m 2 min 0 min 298 W/m 3,2 km/h (1 Bft) 97,87 %
13.11.2022 14:20 16,8 C 17,2 C 8,9 C 53 % 1021,2 hPa 0,0 l/m 2 min 0 min 295 W/m 3,2 km/h (1 Bft) 100,00 %
13.11.2022 14:22 16,8 C 17,8 C 8,9 C 53 % 1021,2 hPa 0,0 l/m 2 min 0 min 292 W/m 3,2 km/h (1 Bft) 95,74 %
13.11.2022 14:24 16,8 C 17,8 C 8,9 C 53 % 1021,2 hPa 0,0 l/m 2 min 0 min 287 W/m 3,2 km/h (1 Bft) 100,00 %
13.11.2022 14:26 16,8 C 17,2 C 8,9 C 53 % 1021,1 hPa 0,0 l/m 2 min 0 min 282 W/m 6,4 km/h (2 Bft) 95,65 %
13.11.2022 14:28 16,8 C 17,2 C 8,9 C 52 % 1021,1 hPa 0,0 l/m 2 min 0 min 227 W/m 3,2 km/h (1 Bft) 100,00 %
13.11.2022 14:30 16,7 C 17,2 C 8,9 C 52 % 1021,0 hPa 0,0 l/m 2 min 0 min 214 W/m 3,2 km/h (1 Bft) 97,87 %
13.11.2022 14:32 16,7 C 17,8 C 8,9 C 52 % 1021,1 hPa 0,0 l/m 2 min 0 min 268 W/m 3,2 km/h (1 Bft) 97,87 %
13.11.2022 14:34 16,7 C 19,4 C 8,3 C 53 % 1021,0 hPa 0,0 l/m 2 min 0 min 248 W/m 0,0 km/h (0 Bft) 97,87 %
13.11.2022 14:36 16,7 C 20,0 C 8,3 C 54 % 1021,0 hPa 0,0 l/m 2 min 0 min 196 W/m 3,2 km/h (1 Bft) 95,74 %
13.11.2022 14:38 16,7 C 18,9 C 8,3 C 53 % 1021,0 hPa 0,0 l/m 2 min 0 min 250 W/m 6,4 km/h (2 Bft) 97,83 %
13.11.2022 14:40 16,7 C 18,3 C 8,9 C 53 % 1020,9 hPa 0,0 l/m 2 min 0 min 248 W/m 3,2 km/h (1 Bft) 95,74 %
13.11.2022 14:42 16,7 C 18,3 C 8,9 C 53 % 1020,9 hPa 0,0 l/m 2 min 0 min 247 W/m 3,2 km/h (1 Bft) 95,74 %
13.11.2022 14:44 16,7 C 18,3 C 8,9 C 53 % 1020,9 hPa 0,0 l/m 2 min 0 min 243 W/m 3,2 km/h (1 Bft) 95,74 %
13.11.2022 14:46 16,7 C 18,3 C 8,9 C 53 % 1020,8 hPa 0,0 l/m 2 min 0 min 238 W/m 3,2 km/h (1 Bft) 95,74 %
13.11.2022 14:48 16,7 C 17,8 C 8,9 C 54 % 1020,8 hPa 0,0 l/m 2 min 0 min 223 W/m 3,2 km/h (1 Bft) 95,74 %
13.11.2022 14:50 16,7 C 17,2 C 8,9 C 54 % 1020,7 hPa 0,0 l/m 2 min 0 min 167 W/m 6,4 km/h (2 Bft) 97,83 %
13.11.2022 14:52 16,7 C 17,2 C 8,9 C 55 % 1020,7 hPa 0,0 l/m 2 min 0 min 216 W/m 6,4 km/h (2 Bft) 95,74 %
13.11.2022 14:54 16,7 C 16,7 C 8,9 C 55 % 1020,7 hPa 0,0 l/m 2 min 0 min 212 W/m 6,4 km/h (2 Bft) 95,74 %
13.11.2022 14:56 16,7 C 16,1 C 8,9 C 56 % 1020,7 hPa 0,0 l/m 2 min 0 min 198 W/m 3,2 km/h (1 Bft) 95,74 %
13.11.2022 14:58 16,6 C 15,6 C 8,9 C 57 % 1020,7 hPa 0,0 l/m 2 min 0 min 145 W/m 3,2 km/h (1 Bft) 95,74 %
13.11.2022 15:00 16,6 C 15,0 C 8,9 C 58 % 1020,6 hPa 0,0 l/m 2 min 0 min 195 W/m 3,2 km/h (1 Bft) 91,49 %
13.11.2022 15:02 16,6 C 15,0 C 8,9 C 58 % 1020,6 hPa 0,0 l/m 2 min 0 min 198 W/m 6,4 km/h (2 Bft) 91,30 %
13.11.2022 15:04 16,5 C 14,4 C 8,3 C 58 % 1020,6 hPa 0,0 l/m 2 min 0 min 179 W/m 3,2 km/h (1 Bft) 93,75 %
13.11.2022 15:06 16,5 C 14,4 C 8,3 C 58 % 1020,6 hPa 0,0 l/m 2 min 0 min 144 W/m 0,0 km/h (0 Bft) 93,62 %
13.11.2022 15:08 16,5 C 13,9 C 8,3 C 58 % 1020,5 hPa 0,0 l/m 2 min 0 min 126 W/m 3,2 km/h (1 Bft) 95,74 %
13.11.2022 15:10 16,4 C 13,9 C 8,3 C 58 % 1020,6 hPa 0,0 l/m 2 min 0 min 133 W/m 3,2 km/h (1 Bft) 95,74 %
13.11.2022 15:12 16,4 C 13,9 C 8,3 C 58 % 1020,6 hPa 0,0 l/m 2 min 0 min 105 W/m 0,0 km/h (0 Bft) 91,30 %
13.11.2022 15:14 16,3 C 13,9 C 8,3 C 58 % 1020,5 hPa 0,0 l/m 0 min 0 min 89 W/m 3,2 km/h (1 Bft) 93,62 %
13.11.2022 15:16 16,3 C 13,9 C 7,8 C 58 % 1020,5 hPa 0,0 l/m 2 min 0 min 133 W/m 0,0 km/h (0 Bft) 93,62 %
13.11.2022 15:18 16,3 C 13,3 C 7,8 C 59 % 1020,5 hPa 0,0 l/m 2 min 0 min 118 W/m 0,0 km/h (0 Bft) 93,62 %
13.11.2022 15:20 16,2 C 13,3 C 7,8 C 59 % 1020,5 hPa 0,0 l/m 0 min 0 min 52 W/m 3,2 km/h (1 Bft) 91,49 %
13.11.2022 15:22 16,2 C 13,3 C 7,8 C 58 % 1020,5 hPa 0,0 l/m 0 min 0 min 35 W/m 3,2 km/h (1 Bft) 95,74 %
13.11.2022 15:24 16,1 C 13,3 C 7,8 C 57 % 1020,6 hPa 0,0 l/m 0 min 0 min 31 W/m 3,2 km/h (1 Bft) 95,74 %
13.11.2022 15:26 16,1 C 13,3 C 7,8 C 57 % 1020,6 hPa 0,0 l/m 0 min 0 min 28 W/m 3,2 km/h (1 Bft) 95,65 %
13.11.2022 15:28 16,0 C 12,8 C 7,8 C 57 % 1020,6 hPa 0,0 l/m 0 min 0 min 28 W/m 3,2 km/h (1 Bft) 95,74 %
13.11.2022 15:30 15,9 C 12,8 C 7,2 C 58 % 1020,6 hPa 0,0 l/m 0 min 0 min 28 W/m 0,0 km/h (0 Bft) 95,74 %
13.11.2022 15:32 15,8 C 13,3 C 7,2 C 58 % 1020,6 hPa 0,0 l/m 0 min 0 min 27 W/m 0,0 km/h (0 Bft) 95,74 %
13.11.2022 15:34 15,8 C 13,3 C 7,2 C 57 % 1020,6 hPa 0,0 l/m 0 min 0 min 26 W/m 0,0 km/h (0 Bft) 95,74 %
13.11.2022 15:36 15,7 C 13,3 C 7,2 C 57 % 1020,6 hPa 0,0 l/m 0 min 0 min 26 W/m 0,0 km/h (0 Bft) 93,48 %
13.11.2022 15:38 15,7 C 12,8 C 7,2 C 57 % 1020,6 hPa 0,0 l/m 0 min 0 min 26 W/m 0,0 km/h (0 Bft) 95,74 %
13.11.2022 15:40 15,6 C 12,8 C 7,2 C 57 % 1020,6 hPa 0,0 l/m 0 min 0 min 25 W/m 0,0 km/h (0 Bft) 95,74 %
13.11.2022 15:42 15,6 C 12,8 C 6,7 C 58 % 1020,6 hPa 0,0 l/m 0 min 0 min 25 W/m 0,0 km/h (0 Bft) 95,74 %
13.11.2022 15:44 15,5 C 12,8 C 6,7 C 58 % 1020,6 hPa 0,0 l/m 0 min 0 min 25 W/m 0,0 km/h (0 Bft) 100,00 %
13.11.2022 15:46 15,4 C 12,2 C 6,7 C 58 % 1020,5 hPa 0,0 l/m 0 min 0 min 25 W/m 0,0 km/h (0 Bft) 97,87 %
13.11.2022 15:48 15,3 C 12,2 C 6,7 C 59 % 1020,5 hPa 0,0 l/m 0 min 0 min 23 W/m 0,0 km/h (0 Bft) 100,00 %
13.11.2022 15:50 15,3 C 12,2 C 6,7 C 59 % 1020,5 hPa 0,0 l/m 0 min 0 min 23 W/m 0,0 km/h (0 Bft) 100,00 %
13.11.2022 15:52 15,2 C 12,2 C 6,1 C 60 % 1020,4 hPa 0,0 l/m 0 min 0 min 23 W/m 0,0 km/h (0 Bft) 100,00 %
13.11.2022 15:54 15,1 C 12,2 C 6,1 C 60 % 1020,4 hPa 0,0 l/m 0 min 0 min 23 W/m 0,0 km/h (0 Bft) 97,87 %
13.11.2022 15:56 15,0 C 11,7 C 6,1 C 60 % 1020,3 hPa 0,0 l/m 0 min 0 min 21 W/m 0,0 km/h (0 Bft) 97,87 %
13.11.2022 15:58 14,9 C 11,7 C 6,1 C 60 % 1020,3 hPa 0,0 l/m 0 min 0 min 21 W/m 0,0 km/h (0 Bft) 97,87 %
13.11.2022 16:00 14,8 C 11,7 C 6,1 C 61 % 1020,3 hPa 0,0 l/m 0 min 0 min 21 W/m 0,0 km/h (0 Bft) 100,00 %
13.11.2022 16:02 14,7 C 11,7 C 6,1 C 62 % 1020,3 hPa 0,0 l/m 0 min 0 min 20 W/m 0,0 km/h (0 Bft) 100,00 %
13.11.2022 16:04 14,6 C 11,1 C 6,1 C 62 % 1020,3 hPa 0,0 l/m 0 min 0 min 19 W/m 0,0 km/h (0 Bft) 100,00 %
13.11.2022 16:06 14,5 C 11,1 C 5,6 C 63 % 1020,2 hPa 0,0 l/m 0 min 0 min 19 W/m 0,0 km/h (0 Bft) 97,87 %
13.11.2022 16:08 14,3 C 11,1 C 5,6 C 63 % 1020,2 hPa 0,0 l/m 0 min 0 min 19 W/m 0,0 km/h (0 Bft) 100,00 %
13.11.2022 16:10 14,3 C 11,1 C 5,6 C 63 % 1020,1 hPa 0,0 l/m 0 min 0 min 18 W/m 0,0 km/h (0 Bft) 100,00 %
13.11.2022 16:12 14,3 C 11,1 C 5,6 C 63 % 1020,1 hPa 0,0 l/m 0 min 0 min 18 W/m 0,0 km/h (0 Bft) 100,00 %
13.11.2022 16:14 14,1 C 11,1 C 5,6 C 64 % 1020,1 hPa 0,0 l/m 0 min 0 min 16 W/m 0,0 km/h (0 Bft) 100,00 %
13.11.2022 16:16 14,1 C 10,6 C 5,6 C 64 % 1020,0 hPa 0,0 l/m 0 min 0 min 16 W/m 0,0 km/h (0 Bft) 100,00 %
13.11.2022 16:18 13,9 C 10,6 C 5,6 C 64 % 1020,0 hPa 0,0 l/m 0 min 0 min 14 W/m 0,0 km/h (0 Bft) 100,00 %
13.11.2022 16:20 13,8 C 10,6 C 5,6 C 64 % 1019,9 hPa 0,0 l/m 0 min 0 min 14 W/m 0,0 km/h (0 Bft) 95,74 %
13.11.2022 16:22 13,7 C 10,6 C 5,6 C 65 % 1019,9 hPa 0,0 l/m 0 min 0 min 14 W/m 0,0 km/h (0 Bft) 100,00 %
13.11.2022 16:24 13,6 C 10,6 C 5,0 C 65 % 1020,0 hPa 0,0 l/m 0 min 0 min 12 W/m 0,0 km/h (0 Bft) 100,00 %
13.11.2022 16:26 13,6 C 10,0 C 5,0 C 65 % 1019,9 hPa 0,0 l/m 0 min 0 min 12 W/m 0,0 km/h (0 Bft) 100,00 %
13.11.2022 16:28 13,4 C 10,0 C 5,0 C 65 % 1019,9 hPa 0,0 l/m 0 min 0 min 12 W/m 0,0 km/h (0 Bft) 97,87 %
13.11.2022 16:30 13,3 C 10,0 C 5,0 C 65 % 1019,9 hPa 0,0 l/m 0 min 0 min 11 W/m 0,0 km/h (0 Bft) 97,87 %
13.11.2022 16:32 13,2 C 10,0 C 5,0 C 65 % 1019,9 hPa 0,0 l/m 0 min 0 min 11 W/m 0,0 km/h (0 Bft) 97,87 %
13.11.2022 16:34 13,1 C 10,0 C 5,0 C 66 % 1019,9 hPa 0,0 l/m 0 min 0 min 11 W/m 0,0 km/h (0 Bft) 97,87 %
13.11.2022 16:36 13,1 C 10,0 C 5,0 C 66 % 1019,8 hPa 0,0 l/m 0 min 0 min 9 W/m 0,0 km/h (0 Bft) 100,00 %
13.11.2022 16:38 12,9 C 9,4 C 5,0 C 66 % 1019,8 hPa 0,0 l/m 0 min 0 min 9 W/m 0,0 km/h (0 Bft) 100,00 %
13.11.2022 16:40 12,8 C 9,4 C 5,0 C 67 % 1019,8 hPa 0,0 l/m 0 min 0 min 8 W/m 0,0 km/h (0 Bft) 97,87 %
13.11.2022 16:42 12,8 C 9,4 C 5,0 C 67 % 1019,8 hPa 0,0 l/m 0 min 0 min 7 W/m 0,0 km/h (0 Bft) 97,87 %
13.11.2022 16:44 12,7 C 9,4 C 5,0 C 68 % 1019,8 hPa 0,0 l/m 0 min 0 min 7 W/m 0,0 km/h (0 Bft) 93,62 %
13.11.2022 16:46 12,6 C 9,4 C 4,4 C 68 % 1019,8 hPa 0,0 l/m 0 min 0 min 5 W/m 0,0 km/h (0 Bft) 97,87 %
13.11.2022 16:48 12,5 C 9,4 C 4,4 C 68 % 1019,7 hPa 0,0 l/m 0 min 0 min 5 W/m 0,0 km/h (0 Bft) 97,83 %
13.11.2022 16:50 12,4 C 9,4 C 4,4 C 68 % 1019,7 hPa 0,0 l/m 0 min 0 min 5 W/m 0,0 km/h (0 Bft) 97,87 %
13.11.2022 16:52 12,4 C 9,4 C 4,4 C 68 % 1019,7 hPa 0,0 l/m 0 min 0 min 2 W/m 0,0 km/h (0 Bft) 97,87 %
13.11.2022 16:54 12,3 C 9,4 C 4,4 C 68 % 1019,7 hPa 0,0 l/m 0 min 0 min 0 W/m 0,0 km/h (0 Bft) 97,87 %
13.11.2022 16:56 12,2 C 8,9 C 4,4 C 68 % 1019,7 hPa 0,0 l/m 0 min 0 min 0 W/m 0,0 km/h (0 Bft) 97,87 %
13.11.2022 16:58 12,2 C 8,9 C 4,4 C 69 % 1019,7 hPa 0,0 l/m 0 min 0 min 0 W/m 0,0 km/h (0 Bft) 95,74 %
13.11.2022 17:00 12,1 C 8,9 C 4,4 C 69 % 1019,7 hPa 0,0 l/m 0 min 0 min 0 W/m 0,0 km/h (0 Bft) 97,83 %
13.11.2022 17:02 12,0 C 8,9 C 4,4 C 69 % 1019,6 hPa 0,0 l/m 0 min 0 min 0 W/m 0,0 km/h (0 Bft) 97,87 %
13.11.2022 17:04 11,9 C 8,9 C 3,9 C 70 % 1019,6 hPa 0,0 l/m 0 min 0 min 0 W/m 0,0 km/h (0 Bft) 97,87 %
13.11.2022 17:06 11,8 C 8,9 C 3,9 C 70 % 1019,5 hPa 0,0 l/m 0 min 0 min 0 W/m 0,0 km/h (0 Bft) 97,87 %
13.11.2022 17:08 11,7 C 8,9 C 3,9 C 70 % 1019,6 hPa 0,0 l/m 0 min 0 min 0 W/m 0,0 km/h (0 Bft) 97,87 %
13.11.2022 17:10 11,7 C 8,3 C 3,9 C 70 % 1019,5 hPa 0,0 l/m 0 min 0 min 0 W/m 0,0 km/h (0 Bft) 100,00 %
13.11.2022 17:12 11,6 C 8,3 C 3,9 C 71 % 1019,5 hPa 0,0 l/m 0 min 0 min 0 W/m 0,0 km/h (0 Bft) 97,83 %
13.11.2022 17:14 11,5 C 8,3 C 3,9 C 71 % 1019,5 hPa 0,0 l/m 0 min 0 min 0 W/m 0,0 km/h (0 Bft) 100,00 %
13.11.2022 17:16 11,4 C 8,3 C 3,9 C 72 % 1019,5 hPa 0,0 l/m 0 min 0 min 0 W/m 0,0 km/h (0 Bft) 100,00 %
13.11.2022 17:18 11,3 C 8,3 C 3,9 C 72 % 1019,6 hPa 0,0 l/m 0 min 0 min 0 W/m 0,0 km/h (0 Bft) 97,87 %
13.11.2022 17:20 11,2 C 8,3 C 3,9 C 72 % 1019,5 hPa 0,0 l/m 0 min 0 min 0 W/m 6,4 km/h (2 Bft) 95,74 %
13.11.2022 17:22 11,2 C 8,3 C 3,9 C 73 % 1019,5 hPa 0,0 l/m 0 min 0 min 0 W/m 6,4 km/h (2 Bft) 93,62 %
13.11.2022 17:24 11,1 C 8,3 C 3,9 C 73 % 1019,5 hPa 0,0 l/m 0 min 0 min 0 W/m 0,0 km/h (0 Bft) 95,65 %
13.11.2022 17:26 11,1 C 8,3 C 3,9 C 73 % 1019,5 hPa 0,0 l/m 0 min 0 min 0 W/m 0,0 km/h (0 Bft) 97,87 %
13.11.2022 17:28 11,0 C 8,3 C 3,9 C 73 % 1019,5 hPa 0,0 l/m 0 min 0 min 0 W/m 0,0 km/h (0 Bft) 97,87 %
13.11.2022 17:30 10,9 C 8,3 C 3,9 C 74 % 1019,5 hPa 0,0 l/m 0 min 0 min 0 W/m 0,0 km/h (0 Bft) 97,87 %
13.11.2022 17:32 10,8 C 7,8 C 3,9 C 74 % 1019,5 hPa 0,0 l/m 0 min 0 min 0 W/m 0,0 km/h (0 Bft) 95,74 %
13.11.2022 17:34 10,8 C 7,8 C 3,9 C 74 % 1019,5 hPa 0,0 l/m 0 min 0 min 0 W/m 0,0 km/h (0 Bft) 95,74 %
13.11.2022 17:36 10,7 C 7,8 C 3,3 C 74 % 1019,5 hPa 0,0 l/m 0 min 0 min 0 W/m 0,0 km/h (0 Bft) 97,83 %
13.11.2022 17:38 10,7 C 7,8 C 3,3 C 74 % 1019,4 hPa 0,0 l/m 0 min 0 min 0 W/m 0,0 km/h (0 Bft) 97,87 %
13.11.2022 17:40 10,6 C 7,8 C 3,3 C 74 % 1019,5 hPa 0,0 l/m 0 min 0 min 0 W/m 0,0 km/h (0 Bft) 93,62 %
13.11.2022 17:42 10,6 C 7,8 C 3,3 C 74 % 1019,5 hPa 0,0 l/m 0 min 0 min 0 W/m 0,0 km/h (0 Bft) 93,62 %
13.11.2022 17:44 10,4 C 7,8 C 3,3 C 75 % 1019,5 hPa 0,0 l/m 0 min 0 min 0 W/m 0,0 km/h (0 Bft) 95,74 %
13.11.2022 17:46 10,4 C 7,8 C 3,3 C 75 % 1019,4 hPa 0,0 l/m 0 min 0 min 0 W/m 0,0 km/h (0 Bft) 95,74 %
13.11.2022 17:48 10,3 C 7,8 C 3,3 C 75 % 1019,4 hPa 0,0 l/m 0 min 0 min 0 W/m 0,0 km/h (0 Bft) 97,83 %
13.11.2022 17:50 10,3 C 7,8 C 3,3 C 75 % 1019,4 hPa 0,0 l/m 0 min 0 min 0 W/m 0,0 km/h (0 Bft) 97,87 %
13.11.2022 17:52 10,2 C 7,8 C 3,3 C 76 % 1019,4 hPa 0,0 l/m 0 min 0 min 0 W/m 0,0 km/h (0 Bft) 97,87 %
13.11.2022 17:54 10,1 C 7,8 C 3,3 C 76 % 1019,3 hPa 0,0 l/m 0 min 0 min 0 W/m 0,0 km/h (0 Bft) 97,87 %
13.11.2022 17:56 10,1 C 7,2 C 3,3 C 76 % 1019,4 hPa 0,0 l/m 0 min 0 min 0 W/m 0,0 km/h (0 Bft) 95,74 %
13.11.2022 17:58 10,0 C 7,2 C 3,3 C 77 % 1019,4 hPa 0,0 l/m 0 min 0 min 0 W/m 0,0 km/h (0 Bft) 98,11 %
13.11.2022 18:00 9,9 C 7,2 C 3,3 C 77 % 1019,3 hPa 0,0 l/m 0 min 0 min 0 W/m 0,0 km/h (0 Bft) 95,74 %
13.11.2022 18:02 9,9 C 7,2 C 3,3 C 77 % 1019,3 hPa 0,0 l/m 0 min 0 min 0 W/m 0,0 km/h (0 Bft) 95,74 %
13.11.2022 18:04 9,8 C 7,2 C 2,8 C 77 % 1019,3 hPa 0,0 l/m 0 min 0 min 0 W/m 0,0 km/h (0 Bft) 95,74 %
13.11.2022 18:08 9,7 C 7,2 C 2,8 C 77 % 1019,2 hPa 0,0 l/m 0 min 0 min 0 W/m 0,0 km/h (0 Bft) 96,43 %
13.11.2022 18:10 9,6 C 7,2 C 2,8 C 78 % 1019,2 hPa 0,0 l/m 0 min 0 min 0 W/m 0,0 km/h (0 Bft) 95,74 %
13.11.2022 18:12 9,6 C 7,2 C 2,8 C 78 % 1019,2 hPa 0,0 l/m 0 min 0 min 0 W/m 0,0 km/h (0 Bft) 95,65 %
13.11.2022 18:14 9,5 C 6,7 C 2,8 C 78 % 1019,2 hPa 0,0 l/m 0 min 0 min 0 W/m 0,0 km/h (0 Bft) 93,62 %
13.11.2022 18:16 9,4 C 6,7 C 2,8 C 78 % 1019,2 hPa 0,0 l/m 0 min 0 min 0 W/m 0,0 km/h (0 Bft) 97,87 %
13.11.2022 18:18 9,4 C 6,7 C 2,8 C 78 % 1019,2 hPa 0,0 l/m 0 min 0 min 0 W/m 0,0 km/h (0 Bft) 95,92 %
13.11.2022 18:20 9,3 C 6,7 C 2,8 C 79 % 1019,2 hPa 0,0 l/m 0 min 0 min 0 W/m 0,0 km/h (0 Bft) 95,74 %
13.11.2022 18:22 9,3 C 6,7 C 2,8 C 79 % 1019,1 hPa 0,0 l/m 0 min 0 min 0 W/m 0,0 km/h (0 Bft) 93,62 %
13.11.2022 18:24 9,2 C 6,7 C 2,8 C 79 % 1019,2 hPa 0,0 l/m 0 min 0 min 0 W/m 0,0 km/h (0 Bft) 95,65 %
13.11.2022 18:26 9,2 C 6,7 C 2,8 C 79 % 1019,2 hPa 0,0 l/m 0 min 0 min 0 W/m 0,0 km/h (0 Bft) 95,74 %
13.11.2022 18:28 9,1 C 6,7 C 2,8 C 79 % 1019,2 hPa 0,0 l/m 0 min 0 min 0 W/m 0,0 km/h (0 Bft) 93,62 %
13.11.2022 18:30 9,1 C 6,7 C 2,8 C 80 % 1019,2 hPa 0,0 l/m 0 min 0 min 0 W/m 0,0 km/h (0 Bft) 95,61 %
13.11.2022 18:32 8,9 C 6,7 C 2,8 C 80 % 1019,2 hPa 0,0 l/m 0 min 0 min 0 W/m 0,0 km/h (0 Bft) 93,10 %
13.11.2022 18:34 8,9 C 6,7 C 2,8 C 80 % 1019,2 hPa 0,0 l/m 0 min 0 min 0 W/m 0,0 km/h (0 Bft) 95,65 %
13.11.2022 18:36 8,8 C 6,7 C 2,8 C 80 % 1019,2 hPa 0,0 l/m 0 min 0 min 0 W/m 0,0 km/h (0 Bft) 95,74 %
13.11.2022 18:38 8,8 C 6,1 C 2,2 C 80 % 1019,1 hPa 0,0 l/m 0 min 0 min 0 W/m 0,0 km/h (0 Bft) 95,74 %
13.11.2022 18:40 8,7 C 6,1 C 2,2 C 80 % 1019,1 hPa 0,0 l/m 0 min 0 min 0 W/m 0,0 km/h (0 Bft) 95,74 %
13.11.2022 18:42 8,7 C 6,1 C 2,2 C 80 % 1019,0 hPa 0,0 l/m 0 min 0 min 0 W/m 0,0 km/h (0 Bft) 95,74 %
13.11.2022 18:44 8,6 C 6,1 C 2,2 C 80 % 1019,0 hPa 0,0 l/m 0 min 0 min 0 W/m 0,0 km/h (0 Bft) 95,74 %
13.11.2022 18:46 8,6 C 6,1 C 2,2 C 80 % 1018,9 hPa 0,0 l/m 0 min 0 min 0 W/m 0,0 km/h (0 Bft) 98,08 %
13.11.2022 18:48 8,5 C 6,1 C 2,2 C 80 % 1018,9 hPa 0,0 l/m 0 min 0 min 0 W/m 0,0 km/h (0 Bft) 100,00 %
13.11.2022 18:50 8,4 C 6,1 C 2,2 C 81 % 1018,9 hPa 0,0 l/m 0 min 0 min 0 W/m 0,0 km/h (0 Bft) 97,87 %
13.11.2022 18:52 8,4 C 6,1 C 2,2 C 81 % 1019,0 hPa 0,0 l/m 0 min 0 min 0 W/m 0,0 km/h (0 Bft) 95,12 %
13.11.2022 18:54 8,3 C 6,1 C 2,2 C 81 % 1019,0 hPa 0,0 l/m 0 min 0 min 0 W/m 0,0 km/h (0 Bft) 97,87 %
13.11.2022 18:56 8,3 C 6,1 C 2,2 C 81 % 1018,9 hPa 0,0 l/m 0 min 0 min 0 W/m 0,0 km/h (0 Bft) 95,74 %
13.11.2022 18:58 8,3 C 6,1 C 2,2 C 81 % 1018,9 hPa 0,0 l/m 0 min 0 min 0 W/m 0,0 km/h (0 Bft) 100,00 %
13.11.2022 19:00 8,2 C 6,1 C 2,2 C 82 % 1018,9 hPa 0,0 l/m 0 min 0 min 0 W/m 3,2 km/h (1 Bft) 95,65 %
13.11.2022 19:02 8,2 C 6,1 C 2,2 C 82 % 1019,0 hPa 0,0 l/m 0 min 0 min 0 W/m 0,0 km/h (0 Bft) 96,23 %
13.11.2022 19:04 8,1 C 6,1 C 2,2 C 82 % 1018,9 hPa 0,0 l/m 0 min 0 min 0 W/m 0,0 km/h (0 Bft) 97,56 %
13.11.2022 19:06 8,1 C 6,1 C 2,2 C 82 % 1018,8 hPa 0,0 l/m 0 min 0 min 0 W/m 0,0 km/h (0 Bft) 96,23 %
13.11.2022 19:08 8,1 C 6,1 C 2,2 C 82 % 1018,8 hPa 0,0 l/m 0 min 0 min 0 W/m 0,0 km/h (0 Bft) 97,87 %
13.11.2022 19:10 7,9 C 6,1 C 2,2 C 82 % 1018,7 hPa 0,0 l/m 0 min 0 min 0 W/m 0,0 km/h (0 Bft) 97,83 %
13.11.2022 19:12 7,9 C 6,1 C 2,2 C 83 % 1018,7 hPa 0,0 l/m 0 min 0 min 0 W/m 0,0 km/h (0 Bft) 97,56 %
13.11.2022 19:14 7,9 C 6,1 C 2,2 C 83 % 1018,7 hPa 0,0 l/m 0 min 0 min 0 W/m 0,0 km/h (0 Bft) 97,87 %
13.11.2022 19:16 7,8 C 5,6 C 2,2 C 83 % 1018,7 hPa 0,0 l/m 0 min 0 min 0 W/m 0,0 km/h (0 Bft) 97,87 %
13.11.2022 19:18 7,8 C 5,6 C 2,2 C 83 % 1018,7 hPa 0,0 l/m 0 min 0 min 0 W/m 0,0 km/h (0 Bft) 97,87 %
13.11.2022 19:20 7,7 C 5,6 C 2,2 C 83 % 1018,6 hPa 0,0 l/m 0 min 0 min 0 W/m 0,0 km/h (0 Bft) 95,74 %
13.11.2022 19:22 7,7 C 5,6 C 2,2 C 83 % 1018,7 hPa 0,0 l/m 0 min 0 min 0 W/m 0,0 km/h (0 Bft) 97,83 %
13.11.2022 19:24 7,6 C 5,6 C 2,2 C 83 % 1018,7 hPa 0,0 l/m 0 min 0 min 0 W/m 0,0 km/h (0 Bft) 97,87 %
13.11.2022 19:26 7,6 C 5,6 C 2,2 C 83 % 1018,7 hPa 0,0 l/m 0 min 0 min 0 W/m 0,0 km/h (0 Bft) 95,74 %
13.11.2022 19:28 7,6 C 5,6 C 2,2 C 83 % 1018,7 hPa 0,0 l/m 0 min 0 min 0 W/m 0,0 km/h (0 Bft) 100,00 %
13.11.2022 19:30 7,5 C 5,6 C 2,2 C 84 % 1018,6 hPa 0,0 l/m 0 min 0 min 0 W/m 0,0 km/h (0 Bft) 100,00 %
13.11.2022 19:32 7,4 C 5,6 C 2,2 C 84 % 1018,6 hPa 0,0 l/m 0 min 0 min 0 W/m 0,0 km/h (0 Bft) 95,74 %
13.11.2022 19:34 7,4 C 5,6 C 2,2 C 84 % 1018,6 hPa 0,0 l/m 0 min 0 min 0 W/m 0,0 km/h (0 Bft) 100,00 %
13.11.2022 19:36 7,4 C 5,6 C 1,7 C 84 % 1018,5 hPa 0,0 l/m 0 min 0 min 0 W/m 0,0 km/h (0 Bft) 97,83 %
13.11.2022 19:38 7,3 C 5,6 C 1,7 C 84 % 1018,5 hPa 0,0 l/m 0 min 0 min 0 W/m 0,0 km/h (0 Bft) 100,00 %
13.11.2022 19:40 7,3 C 5,6 C 1,7 C 84 % 1018,5 hPa 0,0 l/m 0 min 0 min 0 W/m 0,0 km/h (0 Bft) 100,00 %
13.11.2022 19:42 7,3 C 5,6 C 1,7 C 84 % 1018,5 hPa 0,0 l/m 0 min 0 min 0 W/m 0,0 km/h (0 Bft) 100,00 %
13.11.2022 19:44 7,2 C 5,6 C 1,7 C 84 % 1018,5 hPa 0,0 l/m 0 min 0 min 0 W/m 0,0 km/h (0 Bft) 97,87 %
13.11.2022 19:46 7,2 C 5,6 C 1,7 C 85 % 1018,4 hPa 0,0 l/m 0 min 0 min 0 W/m 0,0 km/h (0 Bft) 100,00 %
13.11.2022 19:48 7,2 C 5,6 C 1,7 C 85 % 1018,4 hPa 0,0 l/m 0 min 0 min 0 W/m 0,0 km/h (0 Bft) 100,00 %
13.11.2022 19:50 7,1 C 5,6 C 1,7 C 85 % 1018,4 hPa 0,0 l/m 0 min 0 min 0 W/m 0,0 km/h (0 Bft) 97,87 %
13.11.2022 19:52 7,1 C 5,6 C 1,7 C 85 % 1018,4 hPa 0,0 l/m 0 min 0 min 0 W/m 0,0 km/h (0 Bft) 100,00 %
13.11.2022 19:54 7,1 C 5,6 C 1,7 C 85 % 1018,4 hPa 0,0 l/m 0 min 0 min 0 W/m 0,0 km/h (0 Bft) 95,74 %
13.11.2022 19:56 7,0 C 5,6 C 1,7 C 85 % 1018,4 hPa 0,0 l/m 0 min 0 min 0 W/m 0,0 km/h (0 Bft) 97,87 %
13.11.2022 19:58 7,0 C 5,6 C 1,7 C 85 % 1018,4 hPa 0,0 l/m 0 min 0 min 0 W/m 0,0 km/h (0 Bft) 97,83 %
13.11.2022 20:00 7,0 C 5,6 C 1,7 C 86 % 1018,3 hPa 0,0 l/m 0 min 0 min 0 W/m 0,0 km/h (0 Bft) 97,87 %
13.11.2022 20:02 6,9 C 5,6 C 1,7 C 86 % 1018,3 hPa 0,0 l/m 0 min 0 min 0 W/m 0,0 km/h (0 Bft) 93,62 %
13.11.2022 20:04 6,9 C 5,6 C 1,7 C 86 % 1018,3 hPa 0,0 l/m 0 min 0 min 0 W/m 0,0 km/h (0 Bft) 97,87 %
13.11.2022 20:06 6,9 C 5,6 C 1,7 C 86 % 1018,3 hPa 0,0 l/m 0 min 0 min 0 W/m 0,0 km/h (0 Bft) 97,87 %
13.11.2022 20:08 6,9 C 5,6 C 1,7 C 87 % 1018,3 hPa 0,0 l/m 0 min 0 min 0 W/m 0,0 km/h (0 Bft) 97,87 %
13.11.2022 20:10 6,9 C 5,6 C 1,7 C 87 % 1018,3 hPa 0,0 l/m 0 min 0 min 0 W/m 0,0 km/h (0 Bft) 97,83 %
13.11.2022 20:12 6,9 C 5,6 C 1,7 C 87 % 1018,3 hPa 0,0 l/m 0 min 0 min 0 W/m 0,0 km/h (0 Bft) 95,74 %
13.11.2022 20:14 6,9 C 5,6 C 1,7 C 87 % 1018,3 hPa 0,0 l/m 0 min 0 min 0 W/m 0,0 km/h (0 Bft) 97,87 %
13.11.2022 20:16 6,9 C 5,6 C 1,7 C 88 % 1018,4 hPa 0,0 l/m 0 min 0 min 0 W/m 0,0 km/h (0 Bft) 95,74 %
13.11.2022 20:18 6,9 C 5,6 C 1,7 C 88 % 1018,4 hPa 0,0 l/m 0 min 0 min 0 W/m 0,0 km/h (0 Bft) 97,87 %
13.11.2022 20:20 6,9 C 5,6 C 1,7 C 88 % 1018,4 hPa 0,0 l/m 0 min 0 min 0 W/m 0,0 km/h (0 Bft) 100,00 %
13.11.2022 20:22 6,9 C 5,6 C 1,7 C 88 % 1018,3 hPa 0,0 l/m 0 min 0 min 0 W/m 0,0 km/h (0 Bft) 100,00 %
13.11.2022 20:24 6,9 C 5,6 C 1,7 C 88 % 1018,2 hPa 0,0 l/m 0 min 0 min 0 W/m 0,0 km/h (0 Bft) 95,74 %
13.11.2022 20:26 6,9 C 5,6 C 1,7 C 88 % 1018,3 hPa 0,0 l/m 0 min 0 min 0 W/m 0,0 km/h (0 Bft) 100,00 %
13.11.2022 20:28 6,9 C 5,6 C 1,7 C 88 % 1018,3 hPa 0,0 l/m 0 min 0 min 0 W/m 0,0 km/h (0 Bft) 97,87 %
13.11.2022 20:30 6,8 C 5,6 C 1,7 C 88 % 1018,3 hPa 0,0 l/m 0 min 0 min 0 W/m 0,0 km/h (0 Bft) 100,00 %
13.11.2022 20:32 6,8 C 5,6 C 1,7 C 88 % 1018,3 hPa 0,0 l/m 0 min 0 min 0 W/m 0,0 km/h (0 Bft) 100,00 %
13.11.2022 20:34 6,8 C 5,6 C 1,7 C 88 % 1018,3 hPa 0,0 l/m 0 min 0 min 0 W/m 0,0 km/h (0 Bft) 97,83 %
13.11.2022 20:36 6,8 C 5,6 C 1,7 C 88 % 1018,3 hPa 0,0 l/m 0 min 0 min 0 W/m 0,0 km/h (0 Bft) 95,74 %
13.11.2022 20:38 6,8 C 5,6 C 1,1 C 88 % 1018,3 hPa 0,0 l/m 0 min 0 min 0 W/m 0,0 km/h (0 Bft) 95,74 %
13.11.2022 20:40 6,8 C 5,6 C 1,1 C 88 % 1018,3 hPa 0,0 l/m 0 min 0 min 0 W/m 0,0 km/h (0 Bft) 97,87 %
13.11.2022 20:42 6,8 C 5,6 C 1,1 C 88 % 1018,3 hPa 0,0 l/m 0 min 0 min 0 W/m 0,0 km/h (0 Bft) 97,87 %
13.11.2022 20:44 6,8 C 5,6 C 1,1 C 88 % 1018,3 hPa 0,0 l/m 0 min 0 min 0 W/m 0,0 km/h (0 Bft) 97,87 %
13.11.2022 20:46 6,8 C 5,6 C 1,1 C 88 % 1018,4 hPa 0,0 l/m 0 min 0 min 0 W/m 0,0 km/h (0 Bft) 97,83 %
13.11.2022 20:48 6,8 C 5,6 C 1,1 C 89 % 1018,3 hPa 0,0 l/m 0 min 0 min 0 W/m 0,0 km/h (0 Bft) 95,74 %
13.11.2022 20:50 6,8 C 5,6 C 1,1 C 89 % 1018,3 hPa 0,0 l/m 0 min 0 min 0 W/m 0,0 km/h (0 Bft) 97,87 %
13.11.2022 20:52 6,8 C 5,0 C 1,1 C 88 % 1018,3 hPa 0,0 l/m 0 min 0 min 0 W/m 0,0 km/h (0 Bft) 97,87 %
13.11.2022 20:54 6,7 C 5,6 C 1,1 C 88 % 1018,2 hPa 0,0 l/m 0 min 0 min 0 W/m 0,0 km/h (0 Bft) 97,87 %
13.11.2022 20:56 6,7 C 5,0 C 1,1 C 88 % 1018,2 hPa 0,0 l/m 0 min 0 min 0 W/m 0,0 km/h (0 Bft) 97,83 %
13.11.2022 20:58 6,7 C 5,0 C 1,1 C 88 % 1018,1 hPa 0,0 l/m 0 min 0 min 0 W/m 0,0 km/h (0 Bft) 95,74 %
13.11.2022 21:00 6,7 C 5,0 C 1,1 C 88 % 1018,2 hPa 0,0 l/m 0 min 0 min 0 W/m 0,0 km/h (0 Bft) 93,62 %
13.11.2022 21:02 6,7 C 5,0 C 1,1 C 89 % 1018,2 hPa 0,0 l/m 0 min 0 min 0 W/m 0,0 km/h (0 Bft) 100,00 %
13.11.2022 21:04 6,6 C 5,0 C 1,1 C 89 % 1018,2 hPa 0,0 l/m 0 min 0 min 0 W/m 0,0 km/h (0 Bft) 100,00 %
13.11.2022 21:06 6,6 C 5,0 C 1,1 C 89 % 1018,2 hPa 0,0 l/m 0 min 0 min 0 W/m 0,0 km/h (0 Bft) 100,00 %
13.11.2022 21:08 6,6 C 5,0 C 1,1 C 89 % 1018,2 hPa 0,0 l/m 0 min 0 min 0 W/m 0,0 km/h (0 Bft) 100,00 %
13.11.2022 21:10 6,6 C 5,0 C 1,1 C 89 % 1018,1 hPa 0,0 l/m 0 min 0 min 0 W/m 0,0 km/h (0 Bft) 97,87 %
13.11.2022 21:12 6,5 C 5,0 C 1,1 C 89 % 1018,1 hPa 0,0 l/m 0 min 0 min 0 W/m 0,0 km/h (0 Bft) 100,00 %
13.11.2022 21:14 6,5 C 5,0 C 1,1 C 89 % 1018,1 hPa 0,0 l/m 0 min 0 min 0 W/m 0,0 km/h (0 Bft) 100,00 %
13.11.2022 21:16 6,5 C 5,0 C 1,1 C 89 % 1018,1 hPa 0,0 l/m 0 min 0 min 0 W/m 0,0 km/h (0 Bft) 100,00 %
13.11.2022 21:18 6,4 C 5,0 C 1,1 C 89 % 1018,0 hPa 0,0 l/m 0 min 0 min 0 W/m 0,0 km/h (0 Bft) 100,00 %
13.11.2022 21:20 6,4 C 5,0 C 1,1 C 89 % 1018,0 hPa 0,0 l/m 0 min 0 min 0 W/m 0,0 km/h (0 Bft) 97,87 %
13.11.2022 21:22 6,4 C 5,0 C 1,1 C 89 % 1018,0 hPa 0,0 l/m 0 min 0 min 0 W/m 0,0 km/h (0 Bft) 97,83 %
13.11.2022 21:24 6,4 C 5,0 C 1,1 C 89 % 1017,9 hPa 0,0 l/m 0 min 0 min 0 W/m 0,0 km/h (0 Bft) 97,87 %
13.11.2022 21:26 6,3 C 5,0 C 1,1 C 89 % 1017,9 hPa 0,0 l/m 0 min 0 min 0 W/m 0,0 km/h (0 Bft) 93,62 %
13.11.2022 21:28 6,3 C 5,0 C 1,1 C 89 % 1017,9 hPa 0,0 l/m 0 min 0 min 0 W/m 0,0 km/h (0 Bft) 100,00 %
13.11.2022 21:30 6,3 C 5,0 C 1,1 C 89 % 1017,8 hPa 0,0 l/m 0 min 0 min 0 W/m 0,0 km/h (0 Bft) 97,87 %
13.11.2022 21:32 6,3 C 5,0 C 1,1 C 89 % 1017,9 hPa 0,0 l/m 0 min 0 min 0 W/m 0,0 km/h (0 Bft) 100,00 %
13.11.2022 21:34 6,3 C 5,0 C 1,1 C 89 % 1017,9 hPa 0,0 l/m 0 min 0 min 0 W/m 0,0 km/h (0 Bft) 97,87 %
13.11.2022 21:36 6,2 C 4,4 C 1,1 C 89 % 1017,9 hPa 0,0 l/m 0 min 0 min 0 W/m 0,0 km/h (0 Bft) 97,87 %
13.11.2022 21:38 6,2 C 4,4 C 1,1 C 89 % 1017,8 hPa 0,0 l/m 0 min 0 min 0 W/m 0,0 km/h (0 Bft) 53,49 %
13.11.2022 21:40 6,2 C 4,4 C 1,1 C 89 % 1017,8 hPa 0,0 l/m 0 min 0 min 0 W/m 0,0 km/h (0 Bft) 93,62 %
13.11.2022 21:42 6,2 C 4,4 C 1,1 C 89 % 1017,9 hPa 0,0 l/m 0 min 0 min 0 W/m 0,0 km/h (0 Bft) 95,74 %
13.11.2022 21:44 6,2 C 4,4 C 1,1 C 90 % 1017,8 hPa 0,0 l/m 0 min 0 min 0 W/m 0,0 km/h (0 Bft) 95,65 %
13.11.2022 21:46 6,1 C 4,4 C 1,1 C 90 % 1017,8 hPa 0,0 l/m 0 min 0 min 0 W/m 0,0 km/h (0 Bft) 93,62 %
13.11.2022 21:48 6,1 C 4,4 C 1,1 C 90 % 1017,8 hPa 0,0 l/m 0 min 0 min 0 W/m 0,0 km/h (0 Bft) 93,62 %
13.11.2022 21:50 6,1 C 4,4 C 1,1 C 90 % 1017,7 hPa 0,0 l/m 0 min 0 min 0 W/m 0,0 km/h (0 Bft) 95,74 %
13.11.2022 21:52 6,1 C 4,4 C 1,1 C 90 % 1017,7 hPa 0,0 l/m 0 min 0 min 0 W/m 0,0 km/h (0 Bft) 93,62 %
13.11.2022 21:54 6,0 C 4,4 C 1,1 C 90 % 1017,7 hPa 0,0 l/m 0 min 0 min 0 W/m 0,0 km/h (0 Bft) 93,62 %
13.11.2022 21:56 6,0 C 4,4 C 0,6 C 90 % 1017,7 hPa 0,0 l/m 0 min 0 min 0 W/m 0,0 km/h (0 Bft) 91,30 %
13.11.2022 21:58 6,0 C 4,4 C 0,6 C 90 % 1017,6 hPa 0,0 l/m 0 min 0 min 0 W/m 0,0 km/h (0 Bft) 91,49 %
13.11.2022 22:00 5,9 C 4,4 C 0,6 C 90 % 1017,6 hPa 0,0 l/m 0 min 0 min 0 W/m 0,0 km/h (0 Bft) 95,74 %
13.11.2022 22:02 5,9 C 4,4 C 0,6 C 90 % 1017,5 hPa 0,0 l/m 0 min 0 min 0 W/m 0,0 km/h (0 Bft) 95,74 %
13.11.2022 22:04 5,9 C 4,4 C 0,6 C 90 % 1017,6 hPa 0,0 l/m 0 min 0 min 0 W/m 0,0 km/h (0 Bft) 95,83 %
13.11.2022 22:06 5,8 C 4,4 C 0,6 C 90 % 1017,6 hPa 0,0 l/m 0 min 0 min 0 W/m 0,0 km/h (0 Bft) 97,87 %
13.11.2022 22:08 5,8 C 4,4 C 0,6 C 90 % 1017,6 hPa 0,0 l/m 0 min 0 min 0 W/m 0,0 km/h (0 Bft) 93,48 %
13.11.2022 22:10 5,8 C 4,4 C 0,6 C 90 % 1017,5 hPa 0,0 l/m 0 min 0 min 0 W/m 0,0 km/h (0 Bft) 95,74 %
13.11.2022 22:12 5,8 C 4,4 C 0,6 C 90 % 1017,5 hPa 0,0 l/m 0 min 0 min 0 W/m 0,0 km/h (0 Bft) 95,74 %
13.11.2022 22:14 5,8 C 4,4 C 0,6 C 90 % 1017,5 hPa 0,0 l/m 0 min 0 min 0 W/m 0,0 km/h (0 Bft) 93,62 %
13.11.2022 22:16 5,7 C 4,4 C 1,1 C 90 % 1017,5 hPa 0,0 l/m 0 min 0 min 0 W/m 0,0 km/h (0 Bft) 91,49 %
13.11.2022 22:18 5,7 C 4,4 C 1,1 C 90 % 1017,5 hPa 0,0 l/m 0 min 0 min 0 W/m 0,0 km/h (0 Bft) 95,74 %
13.11.2022 22:20 5,7 C 4,4 C 1,1 C 90 % 1017,5 hPa 0,0 l/m 0 min 0 min 0 W/m 0,0 km/h (0 Bft) 95,65 %
13.11.2022 22:22 5,7 C 5,0 C 1,1 C 91 % 1017,5 hPa 0,0 l/m 0 min 0 min 0 W/m 0,0 km/h (0 Bft) 97,87 %
13.11.2022 22:24 5,7 C 5,0 C 1,1 C 91 % 1017,5 hPa 0,0 l/m 0 min 0 min 0 W/m 0,0 km/h (0 Bft) 95,74 %
13.11.2022 22:26 5,7 C 5,0 C 1,1 C 91 % 1017,4 hPa 0,0 l/m 0 min 0 min 0 W/m 0,0 km/h (0 Bft) 93,62 %
13.11.2022 22:28 5,7 C 5,0 C 1,1 C 91 % 1017,4 hPa 0,0 l/m 0 min 0 min 0 W/m 0,0 km/h (0 Bft) 93,62 %
13.11.2022 22:30 5,7 C 4,4 C 1,1 C 91 % 1017,5 hPa 0,0 l/m 0 min 0 min 0 W/m 3,2 km/h (1 Bft) 95,74 %
13.11.2022 22:32 5,7 C 5,0 C 1,1 C 91 % 1017,4 hPa 0,0 l/m 0 min 0 min 0 W/m 3,2 km/h (1 Bft) 95,65 %
13.11.2022 22:34 5,7 C 5,0 C 1,1 C 91 % 1017,4 hPa 0,0 l/m 0 min 0 min 0 W/m 0,0 km/h (0 Bft) 93,62 %
13.11.2022 22:36 5,7 C 5,0 C 1,1 C 91 % 1017,4 hPa 0,0 l/m 0 min 0 min 0 W/m 0,0 km/h (0 Bft) 97,87 %
13.11.2022 22:38 5,7 C 5,0 C 1,1 C 91 % 1017,4 hPa 0,0 l/m 0 min 0 min 0 W/m 0,0 km/h (0 Bft) 95,74 %
13.11.2022 22:40 5,8 C 5,0 C 1,1 C 92 % 1017,4 hPa 0,0 l/m 0 min 0 min 0 W/m 0,0 km/h (0 Bft) 97,87 %
13.11.2022 22:42 5,8 C 5,0 C 1,1 C 92 % 1017,3 hPa 0,0 l/m 0 min 0 min 0 W/m 0,0 km/h (0 Bft) 95,74 %
13.11.2022 22:44 5,7 C 4,4 C 1,1 C 91 % 1017,4 hPa 0,0 l/m 0 min 0 min 0 W/m 0,0 km/h (0 Bft) 95,65 %
13.11.2022 22:46 5,7 C 4,4 C 1,1 C 91 % 1017,4 hPa 0,0 l/m 0 min 0 min 0 W/m 0,0 km/h (0 Bft) 97,87 %
13.11.2022 22:48 5,7 C 4,4 C 1,1 C 91 % 1017,4 hPa 0,0 l/m 0 min 0 min 0 W/m 0,0 km/h (0 Bft) 97,87 %
13.11.2022 22:50 5,7 C 4,4 C 1,1 C 91 % 1017,3 hPa 0,0 l/m 0 min 0 min 0 W/m 0,0 km/h (0 Bft) 95,74 %
13.11.2022 22:52 5,6 C 4,4 C 1,1 C 91 % 1017,3 hPa 0,0 l/m 0 min 0 min 0 W/m 0,0 km/h (0 Bft) 91,49 %
13.11.2022 22:54 5,6 C 4,4 C 1,1 C 91 % 1017,3 hPa 0,0 l/m 0 min 0 min 0 W/m 0,0 km/h (0 Bft) 95,74 %
13.11.2022 22:56 5,6 C 4,4 C 1,1 C 91 % 1017,2 hPa 0,0 l/m 0 min 0 min 0 W/m 0,0 km/h (0 Bft) 97,83 %
13.11.2022 22:58 5,6 C 4,4 C 1,1 C 91 % 1017,2 hPa 0,0 l/m 0 min 0 min 0 W/m 0,0 km/h (0 Bft) 100,00 %
13.11.2022 23:00 5,5 C 4,4 C 0,6 C 91 % 1017,2 hPa 0,0 l/m 0 min 0 min 0 W/m 0,0 km/h (0 Bft) 95,74 %
13.11.2022 23:02 5,5 C 3,9 C 1,1 C 91 % 1017,2 hPa 0,0 l/m 0 min 0 min 0 W/m 0,0 km/h (0 Bft) 95,74 %
13.11.2022 23:04 5,5 C 3,9 C 0,6 C 91 % 1017,2 hPa 0,0 l/m 0 min 0 min 0 W/m 0,0 km/h (0 Bft) 97,87 %
13.11.2022 23:06 5,4 C 3,9 C 0,6 C 91 % 1017,1 hPa 0,0 l/m 0 min 0 min 0 W/m 0,0 km/h (0 Bft) 97,87 %
13.11.2022 23:08 5,4 C 3,9 C 0,6 C 91 % 1017,1 hPa 0,0 l/m 0 min 0 min 0 W/m 0,0 km/h (0 Bft) 100,00 %
13.11.2022 23:10 5,4 C 3,9 C 0,6 C 91 % 1017,1 hPa 0,0 l/m 0 min 0 min 0 W/m 0,0 km/h (0 Bft) 100,00 %
13.11.2022 23:12 5,4 C 3,9 C 0,6 C 91 % 1017,1 hPa 0,0 l/m 0 min 0 min 0 W/m 0,0 km/h (0 Bft) 93,62 %
13.11.2022 23:14 5,3 C 3,9 C 0,6 C 91 % 1017,0 hPa 0,0 l/m 0 min 0 min 0 W/m 0,0 km/h (0 Bft) 95,74 %
13.11.2022 23:16 5,3 C 3,9 C 0,6 C 91 % 1017,1 hPa 0,0 l/m 0 min 0 min 0 W/m 0,0 km/h (0 Bft) 100,00 %
13.11.2022 23:18 5,3 C 3,9 C 0,6 C 91 % 1017,1 hPa 0,0 l/m 0 min 0 min 0 W/m 0,0 km/h (0 Bft) 95,65 %
13.11.2022 23:20 5,3 C 3,9 C 0,6 C 92 % 1017,0 hPa 0,0 l/m 0 min 0 min 0 W/m 0,0 km/h (0 Bft) 97,87 %
13.11.2022 23:22 5,3 C 3,9 C 0,6 C 92 % 1017,1 hPa 0,0 l/m 0 min 0 min 0 W/m 0,0 km/h (0 Bft) 97,87 %
13.11.2022 23:24 5,2 C 3,9 C 0,6 C 91 % 1017,1 hPa 0,0 l/m 0 min 0 min 0 W/m 0,0 km/h (0 Bft) 95,74 %
13.11.2022 23:26 5,2 C 3,9 C 0,6 C 91 % 1017,2 hPa 0,0 l/m 0 min 0 min 0 W/m 0,0 km/h (0 Bft) 95,74 %
13.11.2022 23:28 5,2 C 3,9 C 0,6 C 91 % 1017,1 hPa 0,0 l/m 0 min 0 min 0 W/m 0,0 km/h (0 Bft) 95,74 %
13.11.2022 23:30 5,2 C 3,9 C 0,6 C 91 % 1017,1 hPa 0,0 l/m 0 min 0 min 0 W/m 0,0 km/h (0 Bft) 91,30 %
13.11.2022 23:32 5,2 C 3,9 C 0,6 C 91 % 1017,1 hPa 0,0 l/m 0 min 0 min 0 W/m 0,0 km/h (0 Bft) 93,62 %
13.11.2022 23:34 5,2 C 3,9 C 0,6 C 92 % 1017,1 hPa 0,0 l/m 0 min 0 min 0 W/m 0,0 km/h (0 Bft) 87,23 %
13.11.2022 23:36 5,1 C 3,9 C 0,6 C 92 % 1017,0 hPa 0,0 l/m 0 min 0 min 0 W/m 0,0 km/h (0 Bft) 89,36 %
13.11.2022 23:38 5,1 C 3,9 C 0,6 C 92 % 1017,1 hPa 0,0 l/m 0 min 0 min 0 W/m 0,0 km/h (0 Bft) 93,62 %
13.11.2022 23:40 5,1 C 3,9 C 0,6 C 92 % 1017,0 hPa 0,0 l/m 0 min 0 min 0 W/m 0,0 km/h (0 Bft) 93,62 %
13.11.2022 23:42 5,1 C 3,9 C 0,6 C 92 % 1017,0 hPa 0,0 l/m 0 min 0 min 0 W/m 0,0 km/h (0 Bft) 73,91 %
13.11.2022 23:44 5,0 C 3,9 C 0,6 C 92 % 1017,0 hPa 0,0 l/m 0 min 0 min 0 W/m 0,0 km/h (0 Bft) 48,94 %
13.11.2022 23:46 4,9 C 3,3 C 0,6 C 92 % 1017,0 hPa 0,0 l/m 0 min 0 min 0 W/m 0,0 km/h (0 Bft) 87,23 %
13.11.2022 23:48 4,9 C 3,3 C 0,6 C 92 % 1017,0 hPa 0,0 l/m 0 min 0 min 0 W/m 0,0 km/h (0 Bft) 91,30 %
13.11.2022 23:50 4,9 C 3,3 C 0,0 C 92 % 1017,0 hPa 0,0 l/m 0 min 0 min 0 W/m 0,0 km/h (0 Bft) 89,36 %
13.11.2022 23:52 4,8 C 3,3 C 0,0 C 92 % 1017,0 hPa 0,0 l/m 0 min 0 min 0 W/m 0,0 km/h (0 Bft) 95,74 %
13.11.2022 23:54 4,8 C 3,3 C 0,0 C 92 % 1017,0 hPa 0,0 l/m 0 min 0 min 0 W/m 0,0 km/h (0 Bft) 86,96 %
13.11.2022 23:56 4,8 C 3,3 C 0,0 C 92 % 1016,9 hPa 0,0 l/m 0 min 0 min 0 W/m 0,0 km/h (0 Bft) 97,87 %
13.11.2022 23:58 4,8 C 3,3 C 0,0 C 92 % 1016,9 hPa 0,0 l/m 0 min 0 min 0 W/m 0,0 km/h (0 Bft) 97,87 %
_ Min-Zeit 23:52 23:46 23:50 14:28 23:56 - - - - 00:54 06:58
Minimum _ 4,8 C 3,3 C 0,0 C 52 % 1016,9 hPa - - - - 0,0 km/h (0 Bft) 39,39 %
_ Max-Zeit 14:18 10:28 13:06 08:18 00:32 00:00 09:38 00:00 13:08 12:42 00:00
Maximum _ 16,9 C 20,6 C 9,4 C 92 % 1028,0 hPa 0,0 l/m 2 min 0 min 382 W/m 19,3 km/h
S-SO (3 Bft)
100,00 %
Durchschnitt _ 9,4 C 8,6 C 4,2 C 80 % 1022,6 hPa #0,0 l/m #3:27 h #0 min. 122 W/m 3,7 km/h (1 Bft) 97,01 %
© 2022 W. Hausmann